Data for 01/20/2010

Time Sea-Level Adjusted Pressure Absolute Pressure Temperature Relative Humidity Dew Point Precipitation   
(mb) (inHg) (mb) (inHg) (C) (F) (%) (C) (F) (mm) (in)
00:01 1003 29.62 832 24.57 -7.4 18.8 72 -11.5 11.3 -7.11 -0.28
00:02 1003 29.62 832 24.57 -7.4 18.8 71 -11.8 10.8 -7.09 -0.279
00:03 1003 29.62 832 24.57 -7.4 18.8 74 -11.2 11.9 -7.03 -0.277
00:04 1003 29.62 832 24.57 -7.1 19.2 73 -11.2 11.9 -6.807 -0.268
00:05 1003 29.62 832 24.57 -7 19.3 69 -11.7 10.9 -6.711 -0.264
00:06 1003 29.62 832 24.57 -7.1 19.2 77 -10.5 13.2 -6.739 -0.265
00:07 1003 29.62 832 24.57 -6.5 20.4 73 -10.5 13.2 -5.997 -0.236
00:08 1003 29.62 832 24.57 -6 21.3 66 -11.3 11.6 -5.651 -0.222
00:09 1003 29.62 832 24.57 -6.3 20.6 69 -11.1 12 -5.872 -0.231
00:10 1003 29.62 832 24.57 -6.5 20.3 74 -10.3 13.4 -6.025 -0.237
00:11 1003 29.62 832 24.57 -6.1 21 71 -10.6 12.9 -5.651 -0.222
00:12 1003 29.62 832 24.57 -5.9 21.5 68 -10.8 12.5 -5.47 -0.215
00:13 1003 29.62 832 24.57 -6 21.2 67 -11.2 11.8 -5.6 -0.22
00:14 1003 29.62 832 24.57 -6.6 20 65 -12.2 10.1 -6.303 -0.248
00:15 1003 29.62 832 24.57 -7.3 18.8 73 -11.5 11.4 -6.944 -0.273
00:16 1003 29.62 832 24.57 -7.3 18.9 74 -11.1 12 -6.882 -0.271
00:17 1003 29.62 832 24.57 -6.9 19.5 73 -11 12.2 -6.581 -0.259
00:18 1003 29.62 832 24.57 -6.6 20.2 72 -10.8 12.6 -6.206 -0.244
00:19 1003 29.62 832 24.57 -6.2 20.9 70 -10.9 12.4 -5.888 -0.232
00:20 1003 29.62 832 24.57 -6.1 21 69 -10.9 12.3 -5.826 -0.229
00:21 1003 29.62 832 24.57 -6.2 20.9 69 -11 12.3 -5.803 -0.228
00:22 1003 29.62 832 24.57 -6.2 20.8 70 -10.8 12.5 -5.814 -0.229
00:23 1003 29.62 832 24.57 -6.1 21 69 -10.9 12.3 -5.746 -0.226
00:24 1003 29.62 832 24.57 -6.2 20.8 68 -11.1 11.9 -5.864 -0.231
00:25 1003 29.62 832 24.57 -6.3 20.6 71 -10.7 12.7 -5.881 -0.232
00:26 1003 29.62 832 24.57 -6.1 21 67 -11.3 11.7 -5.745 -0.226
00:27 1003 29.62 832 24.57 -6.4 20.5 68 -11.4 11.5 -6.04 -0.238
00:28 1003 29.62 832 24.57 -6.8 19.7 70 -11.4 11.5 -6.459 -0.254
00:29 1003 29.62 832 24.57 -7 19.4 73 -11.1 12 -6.555 -0.258
00:30 1003 29.62 832 24.57 -6.7 19.9 70 -11.3 11.7 -6.379 -0.251
00:31 1003 29.62 832 24.57 -6.6 20.2 70 -11.1 12 -6.249 -0.246
00:32 1003 29.62 832 24.57 -6.6 20.2 68 -11.5 11.3 -6.226 -0.245
00:33 1003 29.62 832 24.57 -6.6 20.1 71 -11.1 12 -6.237 -0.246
00:34 1003 29.62 832 24.57 -6.6 20 70 -11.3 11.7 -6.277 -0.247
00:35 1003 29.62 832 24.57 -6.8 19.8 70 -11.3 11.6 -6.402 -0.252
00:36 1003 29.62 832 24.57 -6.7 19.9 73 -10.9 12.5 -6.271 -0.247
00:37 1003 29.62 832 24.57 -6.4 20.4 70 -11 12.1 -6.084 -0.24
00:38 1003 29.62 832 24.57 -6.2 20.9 69 -11 12.2 -5.897 -0.232
00:39 1003 29.62 832 24.57 -6.1 20.9 69 -11 12.3 -5.913 -0.233
00:40 1003 29.62 832 24.57 -6.1 21.1 70 -10.7 12.7 -5.84 -0.23
00:41 1003 29.62 832 24.57 -5.9 21.5 67 -11.1 12.1 -5.63 -0.222
00:42 1003 29.62 832 24.57 -5.8 21.5 69 -10.7 12.7 -5.601 -0.221
00:43 1003 29.62 832 24.57 -5.8 21.5 66 -11.2 11.8 -5.539 -0.218
00:44 1003 29.62 832 24.57 -6 21.2 68 -11.1 12.1 -5.675 -0.223
00:45 1003 29.62 832 24.57 -6 21.2 69 -10.7 12.7 -5.629 -0.222
00:46 1003 29.62 832 24.57 -5.8 21.5 66 -11.1 12 -5.431 -0.214
00:47 1003 29.62 832 24.57 -5.8 21.5 66 -11.1 12 -5.488 -0.216
00:48 1003 29.62 832 24.57 -5.9 21.4 67 -11.1 12 -5.561 -0.219
00:49 1003 29.62 832 24.57 -5.9 21.3 69 -10.8 12.5 -5.539 -0.218
00:50 1003 29.62 832 24.57 -5.8 21.5 67 -11 12.1 -5.454 -0.215
00:51 1003 29.62 832 24.57 -6.1 20.9 61 -12.4 9.6 -5.799 -0.228
00:52 1003 29.62 832 24.57 -6.9 19.6 69 -11.6 11.2 -6.588 -0.259
00:53 1003 29.62 832 24.57 -7.1 19.2 64 -12.9 8.8 -6.945 -0.273
00:54 1003 29.62 832 24.57 -8 17.6 67 -13.1 8.5 -7.74 -0.305
00:55 1003 29.62 832 24.57 -8.5 16.7 72 -12.7 9.1 -8.17 -0.322
00:56 1003 29.62 832 24.57 -8.7 16.4 70 -13.2 8.3 -8.39 -0.33
00:57 1003 29.62 832 24.57 -9 15.7 72 -13.2 8.3 -8.73 -0.344
00:58 1003 29.62 832 24.57 -9.3 15.4 75 -12.8 8.9 -8.95 -0.352
00:59 1003 29.62 832 24.57 -9 15.9 77 -12.4 9.8 -8.63 -0.34
01:00 1003 29.62 832 24.57 -8.6 16.6 74 -12.5 9.5 -8.25 -0.325
01:01 1003 29.62 832 24.57 -8.4 17 75 -12.1 10.3 -8.04 -0.317
01:02 1003 29.62 832 24.57 -8 17.5 73 -12.1 10.1 -7.7 -0.303
01:03 1003 29.62 832 24.57 -8 17.7 71 -12.3 9.9 -7.63 -0.3
01:04 1003 29.62 832 24.57 -8.1 17.3 71 -12.5 9.6 -7.85 -0.309
01:05 1003 29.62 832 24.57 -8 17.6 74 -11.8 10.8 -7.64 -0.301
01:06 1003 29.62 832 24.57 -7.5 18.5 72 -11.7 11 -7.18 -0.283
01:07 1003 29.62 832 24.57 -7.3 18.9 70 -11.9 10.6 -6.984 -0.275
01:08 1003 29.62 832 24.57 -7.3 18.9 69 -12 10.4 -7.02 -0.276
01:09 1003 29.62 832 24.57 -7.4 18.6 70 -12 10.3 -7.18 -0.283
01:10 1003 29.62 832 24.57 -7.8 18.1 68 -12.7 9.1 -7.42 -0.292
01:11 1003 29.62 832 24.57 -8.3 17.1 70 -12.8 8.9 -8.02 -0.316
01:12 1003 29.62 832 24.57 -8.5 16.7 74 -12.3 9.9 -8.21 -0.323
01:13 1003 29.62 832 24.57 -8.4 16.9 73 -12.3 9.8 -8.07 -0.318
01:14 1003 29.62 832 24.57 -8.3 17.2 71 -12.6 9.3 -7.97 -0.314
01:15 1003 29.62 832 24.57 -8.3 17.1 72 -12.4 9.6 -8.06 -0.317
01:16 1003 29.62 832 24.57 -8.5 16.8 69 -13.1 8.3 -8.26 -0.325
01:17 1003 29.62 832 24.57 -8.9 16 72 -13.1 8.5 -8.72 -0.343
01:18 1003 29.62 832 24.57 -9.2 15.5 73 -13.2 8.2 -8.95 -0.352
01:19 1003 29.62 832 24.57 -9.5 15 72 -13.7 7.4 -9.28 -0.365
01:20 1003 29.62 832 24.57 -9.5 14.8 79 -12.6 9.4 -9.31 -0.367
01:21 1003 29.62 832 24.57 -9 15.8 75 -12.6 9.3 -8.77 -0.345
01:22 1003 29.62 832 24.57 -8.6 16.6 74 -12.5 9.6 -8.32 -0.328
01:23 1003 29.62 832 24.57 -8.2 17.2 72 -12.3 9.8 -8.01 -0.315
01:24 1003 29.62 832 24.57 -8 17.7 73 -12.1 10.3 -7.68 -0.302
01:25 1003 29.62 832 24.57 -7.6 18.4 69 -12.3 9.9 -7.35 -0.289
01:26 1003 29.62 832 24.57 -7.6 18.3 69 -12.4 9.7 -7.34 -0.289
01:27 1003 29.62 832 24.57 -7.7 18.2 69 -12.4 9.6 -7.32 -0.288
01:28 1003 29.62 832 24.57 -7.8 18 69 -12.6 9.4 -7.47 -0.294
01:29 1003 29.62 832 24.57 -8.2 17.3 69 -12.9 8.7 -7.87 -0.31
01:30 1003 29.62 832 24.57 -8.7 16.4 70 -13.1 8.4 -8.37 -0.33
01:31 1003 29.62 832 24.57 -9 15.8 72 -13.2 8.2 -8.7 -0.343
01:32 1003 29.62 832 24.57 -9.2 15.5 73 -13.2 8.3 -8.84 -0.348
01:33 1003 29.62 832 24.57 -9.1 15.7 75 -12.7 9.2 -8.7 -0.343
01:34 1003 29.62 832 24.57 -8.8 16.2 70 -13.3 8 -8.44 -0.332
01:35 1003 29.62 832 24.57 -8.7 16.4 75 -12.3 9.8 -8.36 -0.329
01:36 1003 29.62 832 24.57 -8.3 17 72 -12.6 9.4 -7.97 -0.314
01:37 1003 29.62 832 24.57 -8.2 17.2 71 -12.6 9.4 -7.87 -0.31
01:38 1003 29.62 832 24.57 -8.2 17.3 72 -12.3 9.8 -7.8 -0.307
01:39 1003 29.62 832 24.57 -8 17.6 73 -12.1 10.2 -7.66 -0.302
01:40 1003 29.62 832 24.57 -7.5 18.5 70 -12.1 10.2 -7.17 -0.282
01:41 1003 29.62 832 24.57 -7.1 19.2 69 -11.8 10.7 -6.808 -0.268
01:42 1003 29.62 832 24.57 -6.7 19.9 66 -12 10.3 -6.411 -0.252
01:43 1003 29.62 832 24.57 -6.6 20.1 67 -11.7 10.9 -6.326 -0.249
01:44 1003 29.62 832 24.57 -6.3 20.6 67 -11.6 11.2 -6.037 -0.238
01:45 1003 29.62 832 24.57 -5.9 21.4 64 -11.6 11.1 -5.703 -0.225
01:46 1003 29.62 832 24.57 -5.8 21.5 64 -11.7 11 -5.595 -0.22
01:47 1003 29.62 832 24.57 -5.8 21.5 64 -11.6 11.1 -5.555 -0.219
01:48 1003 29.62 832 24.57 -6.3 20.6 62 -12.5 9.4 -6.043 -0.238
01:49 1003 29.62 832 24.57 -7.2 19.1 67 -12.3 9.9 -6.848 -0.27
01:50 1003 29.62 832 24.57 -7.5 18.6 68 -12.5 9.5 -7.12 -0.28
01:51 1003 29.62 832 24.57 -7.8 18 67 -12.9 8.8 -7.54 -0.297
01:52 1003 29.62 832 24.57 -8.2 17.2 72 -12.4 9.6 -7.91 -0.311
01:53 1003 29.62 832 24.57 -8.1 17.4 72 -12.3 9.8 -7.81 -0.307
01:54 1003 29.62 832 24.57 -7.9 17.9 72 -12.1 10.2 -7.59 -0.299
01:55 1003 29.62 832 24.57 -7.7 18.1 71 -12.2 10.1 -7.54 -0.297
01:56 1003 29.62 832 24.57 -7.7 18.1 73 -11.8 10.8 -7.42 -0.292
01:57 1003 29.62 832 24.57 -7.4 18.7 70 -11.9 10.6 -7.1 -0.28
01:58 1003 29.62 832 24.57 -7.2 19.1 69 -11.9 10.5 -6.882 -0.271
01:59 1003 29.62 832 24.57 -7.1 19.3 68 -12.1 10.2 -6.82 -0.269
02:00 1003 29.62 832 24.57 -7.1 19.2 68 -12 10.3 -6.848 -0.27
02:01 1003 29.62 832 24.57 -7.2 19 69 -12 10.4 -6.894 -0.271
02:02 1003 29.62 832 24.57 -7.2 19.1 68 -12 10.4 -6.831 -0.269
02:03 1003 29.62 832 24.57 -7.2 19.1 67 -12.2 10 -6.842 -0.269
02:04 1003 29.62 832 24.57 -7.4 18.8 69 -12 10.4 -7.03 -0.277
02:05 1003 29.62 832 24.57 -7.4 18.7 69 -12.1 10.2 -7.07 -0.278
02:06 1003 29.62 832 24.57 -7.5 18.5 68 -12.4 9.7 -7.14 -0.281
02:07 1003 29.62 832 24.57 -7.6 18.4 69 -12.4 9.8 -7.21 -0.284
02:08 1003 29.62 832 24.57 -7.7 18.2 67 -12.8 9 -7.3 -0.287
02:09 1003 29.62 832 24.57 -8 17.6 69 -12.7 9.1 -7.59 -0.299
02:10 1003 29.62 832 24.57 -8 17.6 73 -12 10.4 -7.47 -0.294
02:11 1003 29.62 832 24.57 -7.4 18.6 68 -12.4 9.7 -7.02 -0.276
02:12 1003 29.62 832 24.57 -7.2 19 69 -12 10.3 -6.854 -0.27
02:13 1003 29.62 832 24.57 -7.1 19.2 68 -12.1 10.2 -6.78 -0.267
02:14 1003 29.62 832 24.57 -7.2 19 67 -12.3 9.8 -6.854 -0.27
02:15 1003 29.62 832 24.57 -7.3 18.8 72 -11.5 11.3 -6.922 -0.273
02:16 1003 29.62 832 24.57 -6.9 19.6 70 -11.4 11.4 -6.473 -0.255
02:17 1003 29.62 832 24.57 -6.5 20.4 68 -11.4 11.4 -6.081 -0.239
02:18 1003 29.62 832 24.57 -6.2 20.8 66 -11.6 11.1 -5.934 -0.234
02:19 1003 29.62 832 24.57 -6.3 20.6 65 -11.9 10.6 -6.031 -0.237
02:20 1003 29.62 832 24.57 -6.5 20.2 68 -11.5 11.4 -6.189 -0.244
02:21 1003 29.62 832 24.57 -6.5 20.3 67 -11.7 10.9 -6.138 -0.242
02:22 1003 29.62 832 24.57 -6.6 20.1 65 -12.2 10 -6.241 -0.246
02:23 1003 29.62 832 24.57 -6.9 19.5 68 -11.9 10.6 -6.524 -0.257
02:24 1003 29.62 832 24.57 -6.9 19.6 68 -11.8 10.7 -6.513 -0.256
02:25 1003 29.62 832 24.57 -6.9 19.6 68 -11.8 10.8 -6.523 -0.257
02:26 1003 29.62 832 24.57 -6.9 19.7 69 -11.7 10.9 -6.483 -0.255
02:27 1003 29.62 832 24.57 -6.8 19.8 68 -11.7 11 -6.409 -0.252
02:28 1003 29.62 832 24.57 -6.7 19.9 66 -12 10.4 -6.381 -0.251
02:29 1003 29.62 832 24.57 -6.8 19.8 66 -12.1 10.3 -6.381 -0.251
02:30 1003 29.62 832 24.57 -6.9 19.7 67 -12 10.5 -6.471 -0.255
02:31 1003 29.62 832 24.57 -7 19.4 69 -11.7 10.9 -6.561 -0.258
02:32 1003 29.62 832 24.57 -6.9 19.7 69 -11.6 11.2 -6.42 -0.253
02:33 1003 29.62 832 24.57 -6.6 20.2 68 -11.5 11.3 -6.199 -0.244
02:34 1003 29.62 832 24.57 -6.4 20.5 67 -11.6 11.1 -6.057 -0.238
02:35 1003 29.62 832 24.57 -6.6 20.2 67 -11.8 10.8 -6.267 -0.247
02:36 1003 29.62 832 24.57 -6.7 20 68 -11.5 11.2 -6.29 -0.248
02:37 1003 29.62 832 24.57 -6.5 20.3 67 -11.6 11.1 -6.137 -0.242
02:38 1003 29.62 832 24.57 -6.3 20.6 67 -11.5 11.3 -5.99 -0.236
02:39 1003 29.62 832 24.57 -6.3 20.7 65 -11.8 10.8 -5.939 -0.234
02:40 1003 29.62 832 24.57 -6.5 20.4 65 -12 10.4 -6.16 -0.243
02:41 1003 29.62 832 24.57 -6.8 19.8 67 -11.9 10.6 -6.478 -0.255
02:42 1003 29.62 832 24.57 -6.9 19.6 69 -11.8 10.8 -6.552 -0.258
02:43 1003 29.62 832 24.57 -6.9 19.6 69 -11.7 10.9 -6.552 -0.258
02:44 1003 29.62 832 24.57 -6.9 19.6 69 -11.6 11.1 -6.546 -0.258
02:45 1003 29.62 832 24.57 -6.8 19.7 69 -11.7 11 -6.416 -0.253
02:46 1003 29.62 832 24.57 -6.8 19.8 69 -11.6 11.1 -6.405 -0.252
02:47 1003 29.62 832 24.57 -6.8 19.8 69 -11.6 11.2 -6.382 -0.251
02:48 1003 29.62 832 24.57 -6.7 19.9 68 -11.6 11 -6.456 -0.254
02:49 1003 29.62 832 24.57 -6.8 19.8 69 -11.5 11.4 -6.399 -0.252
02:50 1003 29.62 832 24.57 -6.6 20.1 68 -11.5 11.3 -6.224 -0.245
02:51 1003 29.62 832 24.57 -6.5 20.3 67 -11.6 11.2 -6.195 -0.244
02:52 1003 29.62 832 24.57 -6.6 20.2 68 -11.6 11.2 -6.269 -0.247
02:53 1003 29.62 832 24.57 -6.6 20.2 67 -11.7 11 -6.263 -0.247
02:54 1003 29.62 832 24.57 -6.7 19.9 68 -11.6 11.1 -6.377 -0.251
02:55 1003 29.62 832 24.57 -6.8 19.8 68 -11.7 10.9 -6.445 -0.254
02:56 1003 29.62 832 24.57 -6.8 19.7 68 -11.8 10.8 -6.468 -0.255
02:57 1003 29.62 832 24.57 -6.9 19.6 68 -11.8 10.8 -6.507 -0.256
02:58 1003 29.62 832 24.57 -6.9 19.5 69 -11.7 10.9 -6.621 -0.261
02:59 1003 29.62 832 24.57 -7 19.4 69 -11.7 10.9 -6.632 -0.261
03:00 1003 29.62 832 24.57 -7 19.4 69 -11.8 10.8 -6.7 -0.264
03:01 1003 29.62 832 24.57 -7.1 19.3 68 -12.1 10.3 -6.774 -0.267
03:02 1003 29.62 832 24.57 -7.1 19.2 71 -11.5 11.2 -6.746 -0.266
03:03 1003 29.62 832 24.57 -6.7 19.9 70 -11.3 11.6 -6.337 -0.249
03:04 1003 29.62 832 24.57 -6.3 20.7 68 -11.3 11.6 -5.929 -0.233
03:05 1003 29.62 832 24.57 -6 21.1 66 -11.4 11.5 -5.804 -0.229
03:06 1003 29.62 832 24.57 -6.1 21 67 -11.3 11.7 -5.85 -0.23
03:07 1003 29.62 832 24.57 -6.1 21 66 -11.5 11.3 -5.827 -0.229
03:08 1003 29.62 832 24.57 -6.2 20.8 67 -11.3 11.6 -5.918 -0.233
03:09 1003 29.62 832 24.57 -6.2 20.9 68 -11.1 12 -5.765 -0.227
03:10 1003 29.62 832 24.57 -5.9 21.4 66 -11.3 11.6 -5.561 -0.219
03:11 1003 29.62 832 24.57 -5.9 21.4 66 -11.3 11.6 -5.612 -0.221
03:12 1003 29.62 832 24.57 -6 21.1 67 -11.3 11.7 -5.742 -0.226
03:13 1003 29.62 832 24.57 -6.1 21 66 -11.4 11.4 -5.748 -0.226
03:14 1003 29.62 832 24.57 -6.2 20.8 68 -11.3 11.7 -5.856 -0.231
03:15 1003 29.62 832 24.57 -6.2 20.9 67 -11.4 11.5 -5.873 -0.231
03:16 1003 29.62 832 24.57 -6.2 20.9 66 -11.5 11.3 -5.878 -0.231
03:17 1003 29.62 832 24.57 -6.3 20.6 66 -11.7 10.9 -6.009 -0.237
03:18 1003 29.62 832 24.57 -6.5 20.2 66 -11.9 10.7 -6.219 -0.245
03:19 1003 29.62 832 24.57 -6.7 19.9 68 -11.7 11 -6.36 -0.25
03:20 1003 29.62 832 24.57 -6.7 19.9 69 -11.6 11.2 -6.366 -0.251
03:21 1003 29.62 832 24.57 -6.7 20 68 -11.7 10.9 -6.309 -0.248
03:22 1003 29.62 832 24.57 -6.6 20.1 68 -11.7 11 -6.264 -0.247
03:23 1003 29.62 832 24.57 -6.6 20.2 69 -11.4 11.4 -6.253 -0.246
03:24 1003 29.62 832 24.57 -6.5 20.3 69 -11.3 11.7 -6.145 -0.242
03:25 1003 29.62 832 24.57 -6.4 20.5 68 -11.4 11.5 -6.026 -0.237
03:26 1003 29.62 832 24.57 -6.4 20.4 62 -12.5 9.5 -6.151 -0.242
03:27 1003 29.62 832 24.57 -7 19.5 64 -12.6 9.3 -6.695 -0.264
03:28 1003 29.62 832 24.57 -7.4 18.6 66 -12.8 9 -7.13 -0.281
03:29 1002 29.59 832 24.57 -7.9 17.7 66 -13.3 8.1 -7.61 -0.3
03:30 1002 29.59 832 24.57 -8.4 17 70 -12.9 8.8 -8.03 -0.316
03:31 1002 29.59 832 24.57 -8.6 16.5 70 -13.2 8.2 -8.32 -0.328
03:32 1003 29.62 832 24.57 -9 15.9 70 -13.5 7.8 -8.67 -0.341
03:33 1002 29.59 832 24.57 -9.2 15.5 73 -13.2 8.3 -8.87 -0.349
03:34 1002 29.59 832 24.57 -9.1 15.6 76 -12.7 9.2 -8.87 -0.349
03:35 1002 29.59 832 24.57 -8.8 16.2 75 -12.5 9.6 -8.54 -0.336
03:36 1002 29.59 832 24.57 -8.4 16.9 74 -12.2 10 -8.18 -0.322
03:37 1002 29.59 832 24.57 -8.1 17.4 67 -13.2 8.3 -7.9 -0.311
03:38 1002 29.59 832 24.57 -8.4 16.8 71 -12.8 9 -8.21 -0.323
03:39 1002 29.59 832 24.57 -8.5 16.8 74 -12.3 9.9 -8.19 -0.322
03:40 1002 29.59 832 24.57 -8.1 17.5 73 -12.1 10.2 -7.78 -0.306
03:41 1002 29.59 832 24.57 -7.7 18.2 72 -11.9 10.7 -7.42 -0.292
03:42 1002 29.59 832 24.57 -7.4 18.7 71 -11.7 10.9 -7.06 -0.278
03:43 1002 29.59 832 24.57 -7.1 19.2 69 -11.9 10.5 -6.808 -0.268
03:44 1002 29.59 832 24.57 -7.2 19.1 70 -11.8 10.7 -6.894 -0.271
03:45 1002 29.59 832 24.57 -7.3 18.9 69 -12 10.4 -6.882 -0.271
03:46 1002 29.59 832 24.57 -7.1 19.2 71 -11.5 11.2 -6.74 -0.265
03:47 1002 29.59 832 24.57 -6.7 19.9 68 -11.7 11 -6.359 -0.25
03:48 1002 29.59 832 24.57 -6.4 20.4 67 -11.6 11.1 -6.121 -0.241
03:49 1002 29.59 832 24.57 -6.3 20.7 66 -11.5 11.2 -6.019 -0.237
03:50 1002 29.59 832 24.57 -6.3 20.7 67 -11.4 11.4 -6.019 -0.237
03:51 1002 29.59 832 24.57 -6.3 20.6 67 -11.5 11.3 -6.008 -0.237
03:52 1002 29.59 832 24.57 -6.4 20.5 65 -11.9 10.6 -6.047 -0.238
03:53 1002 29.59 832 24.57 -6.7 20 64 -12.4 9.7 -6.308 -0.248
03:54 1002 29.59 832 24.57 -7 19.4 68 -12 10.4 -6.591 -0.259
03:55 1002 29.59 832 24.57 -7.2 19.1 68 -12.1 10.2 -6.739 -0.265
03:56 1002 29.59 832 24.57 -7.2 19.1 69 -12 10.4 -6.784 -0.267
03:57 1002 29.59 832 24.57 -7.1 19.3 69 -11.9 10.6 -6.699 -0.264
03:58 1002 29.59 832 24.57 -6.9 19.6 67 -12 10.4 -6.507 -0.256
03:59 1002 29.59 832 24.57 -7 19.3 67 -12.2 10 -6.773 -0.267
04:00 1002 29.59 832 24.57 -7.4 18.7 68 -12.3 9.8 -7.05 -0.278
04:01 1002 29.59 832 24.57 -7.6 18.4 69 -12.4 9.8 -7.23 -0.285
04:02 1002 29.59 832 24.57 -7.5 18.4 68 -12.5 9.4 -7.23 -0.285
04:03 1002 29.59 832 24.57 -7.7 18.1 70 -12.4 9.7 -7.43 -0.293
04:04 1002 29.59 832 24.57 -7.8 17.9 70 -12.3 9.8 -7.45 -0.293
04:05 1002 29.59 832 24.57 -7.7 18.1 70 -12.3 9.8 -7.37 -0.29
04:06 1002 29.59 832 24.57 -7.7 18.1 69 -12.4 9.7 -7.37 -0.29
04:07 1002 29.59 832 24.57 -7.7 18.1 70 -12.2 10 -7.41 -0.292
04:08 1002 29.59 832 24.57 -7.6 18.3 71 -12 10.3 -7.26 -0.286
04:09 1002 29.59 832 24.57 -7.2 19 70 -11.7 10.9 -6.931 -0.273
04:10 1002 29.59 832 24.57 -6.6 20.1 68 -11.6 11.1 -6.443 -0.254
04:11 1002 29.59 832 24.57 -6.2 20.8 66 -11.6 11.1 -6.086 -0.24
04:12 1002 29.59 832 24.57 -6.2 20.8 66 -11.5 11.3 -6.035 -0.238
04:13 1002 29.59 832 24.57 -6 21.2 66 -11.3 11.6 -5.705 -0.225
04:14 1002 29.59 832 24.57 -5.7 21.7 65 -11.4 11.5 -5.456 -0.215
04:15 1002 29.59 832 24.57 -5.7 21.8 65 -11.4 11.6 -5.433 -0.214
04:16 1002 29.59 832 24.57 -5.7 21.7 65 -11.3 11.7 -5.473 -0.215
04:17 1002 29.59 832 24.57 -5.7 21.7 65 -11.4 11.5 -5.456 -0.215
04:18 1002 29.59 832 24.57 -5.6 21.9 65 -11.2 11.8 -5.326 -0.21
04:19 1002 29.59 832 24.57 -5.4 22.3 63 -11.3 11.7 -5.139 -0.202
04:20 1002 29.59 831 24.54 -5.2 22.6 63 -11.2 11.9 -4.952 -0.195
04:21 1002 29.59 831 24.54 -5.1 22.9 62 -11.2 11.9 -4.787 -0.188
04:22 1002 29.59 831 24.54 -4.9 23.1 62 -11 12.1 -4.686 -0.184
04:23 1002 29.59 831 24.54 -4.9 23.1 62 -11.2 11.8 -4.703 -0.185
04:24 1002 29.59 831 24.54 -5.2 22.7 62 -11.4 11.5 -4.901 -0.193
04:25 1002 29.59 831 24.54 -5.8 21.6 60 -12.3 9.9 -5.507 -0.217
04:26 1002 29.59 831 24.54 -6.6 20.1 63 -12.4 9.6 -6.273 -0.247
04:27 1002 29.59 831 24.54 -7.1 19.1 64 -12.8 9 -6.789 -0.267
04:28 1002 29.59 831 24.54 -7.7 18.1 67 -12.8 9 -7.42 -0.292
04:29 1002 29.59 832 24.57 -8.1 17.4 69 -12.9 8.8 -7.78 -0.306
04:30 1002 29.59 832 24.57 -8.2 17.2 70 -12.7 9.2 -7.8 -0.307
04:31 1002 29.59 832 24.57 -8.1 17.5 70 -12.6 9.4 -7.73 -0.304
04:32 1002 29.59 832 24.57 -7.9 17.8 70 -12.4 9.6 -7.57 -0.298
04:33 1002 29.59 832 24.57 -7.7 18.1 71 -12.1 10.2 -7.34 -0.289
04:34 1002 29.59 832 24.57 -7.4 18.8 69 -12.1 10.3 -7.05 -0.278
04:35 1002 29.59 832 24.57 -7.2 19 69 -12 10.5 -6.87 -0.27
04:36 1002 29.59 832 24.57 -7 19.5 69 -11.7 10.9 -6.654 -0.262
04:37 1002 29.59 832 24.57 -6.7 20 68 -11.6 11 -6.342 -0.25
04:38 1002 29.59 832 24.57 -6.4 20.5 66 -11.7 10.9 -6.121 -0.241
04:39 1002 29.59 832 24.57 -6.2 20.8 66 -11.5 11.2 -5.9 -0.232
04:40 1002 29.59 832 24.57 -6 21.3 65 -11.6 11.1 -5.651 -0.222
04:41 1002 29.59 832 24.57 -5.9 21.3 63 -11.8 10.8 -5.583 -0.22
04:42 1002 29.59 832 24.57 -6.1 21 65 -11.6 11 -5.736 -0.226
04:43 1002 29.59 832 24.57 -6 21.1 65 -11.6 11.1 -5.674 -0.223
04:44 1002 29.59 832 24.57 -6 21.2 64 -11.7 10.9 -5.617 -0.221
04:45 1002 29.59 832 24.57 -6.1 21.1 65 -11.7 11 -5.674 -0.223
04:46 1002 29.59 832 24.57 -6 21.1 65 -11.5 11.2 -5.674 -0.223
04:47 1002 29.59 832 24.57 -6.2 20.9 62 -12.3 9.9 -5.878 -0.231
04:48 1002 29.59 832 24.57 -6.8 19.7 64 -12.6 9.3 -6.502 -0.256
04:49 1002 29.59 832 24.57 -7.5 18.6 67 -12.6 9.3 -7.09 -0.279
04:50 1002 29.59 832 24.57 -7.9 17.9 68 -12.7 9.1 -7.45 -0.293
04:51 1002 29.59 832 24.57 -8 17.5 71 -12.4 9.7 -7.66 -0.302
04:52 1003 29.62 832 24.57 -8 17.6 71 -12.3 9.8 -7.61 -0.3
04:53 1003 29.62 832 24.57 -7.9 17.8 72 -12 10.3 -7.51 -0.296
04:54 1003 29.62 832 24.57 -7.5 18.5 72 -11.8 10.8 -7.15 -0.281
04:55 1003 29.62 832 24.57 -7.1 19.3 67 -12.2 10.1 -6.78 -0.267
04:56 1003 29.62 832 24.57 -7.3 19 65 -12.8 9 -6.995 -0.275
04:57 1003 29.62 832 24.57 -7.7 18.2 68 -12.7 9.2 -7.4 -0.291
04:58 1003 29.62 832 24.57 -8 17.6 68 -12.9 8.7 -7.7 -0.303
04:59 1003 29.62 832 24.57 -8.4 16.9 71 -12.8 9 -8.04 -0.317
05:00 1003 29.62 832 24.57 -8.5 16.6 68 -13.3 8 -8.19 -0.322
05:01 1003 29.62 832 24.57 -8.8 16.2 69 -13.5 7.7 -8.52 -0.335
05:02 1003 29.62 832 24.57 -9.1 15.7 71 -13.4 7.9 -8.73 -0.344
05:03 1003 29.62 832 24.57 -9 15.8 71 -13.3 8.1 -8.63 -0.34
05:04 1003 29.62 832 24.57 -9 15.9 71 -13.3 8 -8.6 -0.339
05:05 1003 29.62 832 24.57 -8.9 15.9 71 -13.3 8 -8.61 -0.339
05:06 1003 29.62 832 24.57 -9 15.8 70 -13.4 7.8 -8.65 -0.341
05:07 1003 29.62 832 24.57 -9.1 15.6 72 -13.4 7.9 -8.74 -0.344
05:08 1003 29.62 832 24.57 -9.2 15.4 72 -13.3 8 -8.85 -0.348
05:09 1003 29.62 832 24.57 -9.3 15.3 72 -13.4 7.9 -8.9 -0.35
05:10 1003 29.62 832 24.57 -9.4 15.2 73 -13.4 7.9 -8.99 -0.354
05:11 1003 29.62 832 24.57 -9.4 15 73 -13.4 8 -9.08 -0.357
05:12 1003 29.62 832 24.57 -9.5 14.9 72 -13.7 7.3 -9.15 -0.36
05:13 1003 29.62 832 24.57 -9.7 14.6 74 -13.4 7.8 -9.33 -0.367
05:14 1003 29.62 832 24.57 -9.7 14.6 73 -13.6 7.5 -9.3 -0.366
05:15 1003 29.62 832 24.57 -9.7 14.6 75 -13.4 7.9 -9.34 -0.368
05:16 1003 29.62 832 24.57 -9.6 14.6 75 -13.3 8 -9.29 -0.366
05:17 1003 29.62 832 24.57 -9.5 14.9 75 -13.2 8.3 -9.14 -0.36
05:18 1003 29.62 832 24.57 -9.3 15.2 74 -13.2 8.2 -9.07 -0.357
05:19 1003 29.62 832 24.57 -9.4 15.2 74 -13.2 8.2 -9.02 -0.355
05:20 1003 29.62 832 24.57 -9.4 15.1 73 -13.4 7.9 -9.07 -0.357
05:21 1003 29.62 832 24.57 -9.5 15 73 -13.4 7.9 -9.13 -0.359
05:22 1003 29.62 832 24.57 -9.5 15 74 -13.2 8.2 -9.07 -0.357
05:23 1003 29.62 832 24.57 -9.2 15.5 74 -13 8.7 -8.75 -0.344
05:24 1003 29.62 832 24.57 -8.8 16.2 70 -13.2 8.2 -8.46 -0.333
05:25 1003 29.62 832 24.57 -8.9 16.1 72 -13.1 8.4 -8.44 -0.332
05:26 1003 29.62 832 24.57 -8.8 16.1 72 -13 8.5 -8.4 -0.331
05:27 1003 29.62 832 24.57 -8.7 16.4 72 -12.9 8.8 -8.28 -0.326
05:28 1003 29.62 832 24.57 -8.6 16.4 68 -13.5 7.6 -8.29 -0.326
05:29 1003 29.62 832 24.57 -8.9 16 71 -13.3 8 -8.51 -0.335
05:30 1003 29.62 832 24.57 -8.9 16.1 71 -13.1 8.4 -8.47 -0.333
05:31 1003 29.62 832 24.57 -8.9 16 69 -13.5 7.6 -8.51 -0.335
05:32 1003 29.62 832 24.57 -9.1 15.7 70 -13.6 7.5 -8.68 -0.342
05:33 1003 29.62 832 24.57 -9.3 15.3 73 -13.3 8 -8.83 -0.348
05:34 1003 29.62 832 24.57 -9.2 15.4 75 -12.8 8.9 -8.65 -0.341
05:35 1003 29.62 832 24.57 -8.9 16 74 -12.7 9.1 -8.32 -0.328
05:36 1003 29.62 832 24.57 -8.6 16.5 72 -12.8 8.9 -8.17 -0.322
05:37 1003 29.62 832 24.57 -8.5 16.7 71 -12.8 9 -8.03 -0.316
05:38 1003 29.62 832 24.57 -8.4 17 71 -12.8 9 -8.01 -0.315
05:39 1003 29.62 832 24.57 -8.4 17 71 -12.8 9 -7.99 -0.315
05:40 1003 29.62 832 24.57 -8.3 17 71 -12.8 9 -7.99 -0.315
05:41 1003 29.62 832 24.57 -8.4 17 71 -12.6 9.2 -7.97 -0.314
05:42 1003 29.62 832 24.57 -8.3 17 71 -12.7 9.2 -7.93 -0.312
05:43 1003 29.62 832 24.57 -8.3 17.1 71 -12.7 9.2 -7.94 -0.313
05:44 1003 29.62 832 24.57 -8.3 17.1 71 -12.7 9.2 -7.86 -0.309
05:45 1003 29.62 832 24.57 -8.2 17.3 70 -12.7 9.2 -7.73 -0.304
05:46 1003 29.62 832 24.57 -8 17.7 71 -12.3 9.9 -7.47 -0.294
05:47 1003 29.62 832 24.57 -7.6 18.3 70 -12.2 10 -7.06 -0.278
05:48 1003 29.62 832 24.57 -7.3 18.9 69 -12.1 10.2 -6.764 -0.266
05:49 1003 29.62 832 24.57 -7 19.4 68 -12 10.5 -6.525 -0.257
05:50 1003 29.62 832 24.57 -6.6 20 66 -11.9 10.6 -6.083 -0.239
05:51 1003 29.62 832 24.57 -6.2 20.8 65 -11.8 10.8 -5.743 -0.226
05:52 1003 29.62 832 24.57 -6.1 21.1 64 -11.8 10.7 -5.68 -0.224
05:53 1003 29.62 832 24.57 -6.1 21.1 64 -11.9 10.6 -5.691 -0.224
05:54 1003 29.62 832 24.57 -6.1 21 63 -12 10.4 -5.748 -0.226
05:55 1003 29.62 832 24.57 -6.3 20.6 64 -12.1 10.2 -6.02 -0.237
05:56 1003 29.62 832 24.57 -6.7 20 63 -12.5 9.5 -6.366 -0.251
05:57 1003 29.62 832 24.57 -7.1 19.3 65 -12.5 9.5 -6.718 -0.264
05:58 1003 29.62 832 24.57 -7.4 18.7 65 -12.9 8.8 -7.01 -0.276
05:59 1003 29.62 832 24.57 -7.9 17.7 66 -13.2 8.2 -7.48 -0.294
06:00 1003 29.62 832 24.57 -8.3 17 72 -12.6 9.4 -7.82 -0.308
06:01 1003 29.62 832 24.57 -8.1 17.4 72 -12.4 9.7 -7.64 -0.301
06:02 1003 29.62 832 24.57 -7.6 18.2 67 -12.7 9.1 -7.29 -0.287
06:03 1003 29.62 832 24.57 -7.5 18.4 67 -12.7 9.2 -7.25 -0.285
06:04 1003 29.62 832 24.57 -7.9 17.9 66 -13.1 8.4 -7.53 -0.296
06:05 1003 29.62 832 24.57 -8.3 17.1 70 -12.8 9 -7.95 -0.313
06:06 1003 29.62 832 24.57 -8.4 16.9 72 -12.6 9.4 -8.02 -0.316
06:07 1003 29.62 832 24.57 -8.3 17.1 72 -12.5 9.6 -7.89 -0.311
06:08 1003 29.62 832 24.57 -8.1 17.5 70 -12.6 9.3 -7.72 -0.304
06:09 1003 29.62 832 24.57 -7.9 17.7 71 -12.4 9.8 -7.61 -0.3
06:10 1003 29.62 832 24.57 -7.8 18.1 71 -12.1 10.2 -7.26 -0.286
06:11 1003 29.62 832 24.57 -7.4 18.6 69 -12.1 10.3 -6.945 -0.273
06:12 1003 29.62 832 24.57 -7.3 18.9 69 -12.1 10.2 -6.945 -0.273
06:13 1003 29.62 832 24.57 -7.2 19 69 -11.9 10.6 -6.854 -0.27
06:14 1003 29.62 832 24.57 -7.1 19.2 69 -11.9 10.6 -6.701 -0.264
06:15 1003 29.62 832 24.57 -7 19.4 68 -12 10.4 -6.559 -0.258
06:16 1003 29.62 832 24.57 -7 19.4 68 -11.9 10.5 -6.593 -0.26
06:17 1003 29.62 832 24.57 -7 19.5 68 -11.9 10.7 -6.536 -0.257
06:18 1003 29.62 832 24.57 -6.9 19.6 68 -11.9 10.6 -6.457 -0.254
06:19 1003 29.62 832 24.57 -6.8 19.7 67 -12 10.3 -6.44 -0.254
06:20 1003 29.62 832 24.57 -6.8 19.7 66 -12.1 10.2 -6.457 -0.254
06:21 1003 29.62 832 24.57 -6.9 19.6 65 -12.3 9.8 -6.553 -0.258
06:22 1003 29.62 832 24.57 -7.2 19 65 -12.8 9 -6.826 -0.269
06:23 1003 29.62 832 24.57 -7.5 18.4 68 -12.5 9.5 -7.12 -0.28
06:24 1003 29.62 832 24.57 -7.7 18.2 69 -12.4 9.8 -7.18 -0.283
06:25 1003 29.62 832 24.57 -7.7 18.2 64 -13.3 8.1 -7.28 -0.287
06:26 1003 29.62 832 24.57 -8 17.6 70 -12.5 9.4 -7.59 -0.299
06:27 1003 29.62 832 24.57 -7.8 17.9 70 -12.4 9.7 -7.43 -0.293
06:28 1003 29.62 832 24.57 -7.5 18.6 70 -12 10.3 -7.16 -0.282
06:29 1003 29.62 832 24.57 -7.1 19.3 68 -12 10.4 -6.797 -0.268
06:30 1003 29.62 832 24.57 -6.8 19.7 67 -12 10.5 -6.531 -0.257
06:31 1003 29.62 832 24.57 -6.6 20.1 65 -12.1 10.3 -6.315 -0.249
06:32 1003 29.62 832 24.57 -6.8 19.7 65 -12.3 9.9 -6.502 -0.256
06:33 1003 29.62 832 24.57 -7.2 19 67 -12.4 9.6 -6.791 -0.267
06:34 1003 29.62 832 24.57 -7.4 18.7 68 -12.3 9.8 -7 -0.276
06:35 1003 29.62 832 24.57 -7.3 18.8 70 -12 10.4 -6.894 -0.271
06:36 1003 29.62 832 24.57 -7 19.5 68 -11.8 10.7 -6.616 -0.26
06:37 1003 29.62 832 24.57 -6.8 19.8 67 -11.9 10.6 -6.445 -0.254
06:38 1003 29.62 832 24.57 -6.7 20 65 -12.1 10.2 -6.366 -0.251
06:39 1003 29.62 832 24.57 -6.9 19.6 62 -13.1 8.5 -6.57 -0.259
06:40 1003 29.62 832 24.57 -7.5 18.5 68 -12.3 9.8 -7.01 -0.276
06:41 1003 29.62 832 24.57 -7.6 18.3 70 -12.2 10.1 -7.11 -0.28
06:42 1003 29.62 832 24.57 -7.4 18.7 70 -12 10.3 -6.928 -0.273
06:43 1003 29.62 832 24.57 -7.1 19.2 69 -11.9 10.6 -6.769 -0.266
06:44 1003 29.62 832 24.57 -6.8 19.7 67 -11.9 10.6 -6.582 -0.259
06:45 1003 29.62 832 24.57 -6.8 19.8 67 -11.9 10.5 -6.48 -0.255
06:46 1003 29.62 832 24.57 -6.8 19.7 67 -12.1 10.3 -6.536 -0.257
06:47 1003 29.62 832 24.57 -7 19.4 67 -12.2 10 -6.735 -0.265
06:48 1003 29.62 832 24.57 -7.1 19.1 68 -12.2 10.1 -6.763 -0.266
06:49 1003 29.62 832 24.57 -7.3 18.9 68 -12.2 10.1 -6.899 -0.272
06:50 1003 29.62 832 24.57 -7.6 18.4 66 -12.8 8.9 -7.17 -0.282
06:51 1003 29.62 832 24.57 -8 17.6 68 -12.9 8.8 -7.44 -0.293
06:52 1003 29.62 832 24.57 -8.3 17.1 70 -12.7 9.1 -7.78 -0.306
06:53 1003 29.62 832 24.57 -8.4 16.8 75 -12.2 10.1 -7.94 -0.313
06:54 1003 29.62 832 24.57 -8.2 17.2 73 -12.3 9.8 -7.78 -0.306
06:55 1003 29.62 832 24.57 -8.2 17.3 72 -12.3 9.8 -7.81 -0.307
06:56 1003 29.62 832 24.57 -8.4 17 71 -12.7 9.2 -7.94 -0.313
06:57 1003 29.62 832 24.57 -8.4 16.8 75 -12.2 10.1 -7.99 -0.315
06:58 1003 29.62 832 24.57 -8.3 17 73 -12.4 9.7 -7.88 -0.31
06:59 1003 29.62 832 24.57 -8.2 17.2 73 -12.2 10.1 -7.84 -0.309
07:00 1003 29.62 832 24.57 -8 17.7 72 -12.2 10.1 -7.63 -0.3
07:01 1003 29.62 832 24.57 -7.7 18.2 71 -12 10.4 -7.41 -0.292
07:02 1003 29.62 832 24.57 -7.4 18.6 69 -12.3 9.9 -7.18 -0.283
07:03 1003 29.62 832 24.57 -7.5 18.6 69 -12.3 9.9 -7.15 -0.281
07:04 1003 29.62 832 24.57 -7.5 18.4 68 -12.5 9.6 -7.18 -0.283
07:05 1003 29.62 832 24.57 -7.8 18 68 -12.6 9.3 -7.32 -0.288
07:06 1003 29.62 832 24.57 -8.1 17.5 70 -12.6 9.4 -7.51 -0.296
07:07 1003 29.62 832 24.57 -8.1 17.5 71 -12.4 9.6 -7.59 -0.299
07:08 1003 29.62 832 24.57 -8 17.6 71 -12.3 9.9 -7.5 -0.295
07:09 1003 29.62 832 24.57 -7.7 18.1 71 -12.2 10.1 -7.34 -0.289
07:10 1003 29.62 832 24.57 -7.6 18.4 68 -12.5 9.5 -7.14 -0.281
07:11 1003 29.62 832 24.57 -7.8 18 70 -12.3 9.9 -7.3 -0.287
07:12 1003 29.62 832 24.57 -7.9 17.9 69 -12.6 9.4 -7.36 -0.29
07:13 1003 29.62 832 24.57 -8 17.5 71 -12.3 9.8 -7.53 -0.296
07:14 1003 29.62 832 24.57 -8.1 17.5 72 -12.3 9.9 -7.57 -0.298
07:15 1003 29.62 832 24.57 -8.2 17.3 71 -12.5 9.6 -7.72 -0.304
07:16 1003 29.62 832 24.57 -8.4 16.9 72 -12.6 9.3 -7.93 -0.312
07:17 1003 29.62 832 24.57 -8.6 16.6 75 -12.3 9.9 -8.06 -0.317
07:18 1003 29.62 832 24.57 -8.4 16.9 74 -12.2 10.1 -7.99 -0.315
07:19 1003 29.62 832 24.57 -8.3 17.2 72 -12.4 9.7 -7.84 -0.309
07:20 1003 29.62 832 24.57 -8.3 17.2 73 -12.3 9.9 -7.82 -0.308
07:21 1003 29.62 832 24.57 -8.3 17.2 73 -12.3 9.8 -7.82 -0.308
07:22 1003 29.62 832 24.57 -8.3 17.1 74 -12.2 10 -7.87 -0.31
07:23 1003 29.62 832 24.57 -8.2 17.2 73 -12.2 10 -7.81 -0.307
07:24 1003 29.62 832 24.57 -8.2 17.2 73 -12.2 10.1 -7.87 -0.31
07:25 1003 29.62 832 24.57 -8.2 17.2 75 -12 10.4 -7.82 -0.308
07:26 1003 29.62 832 24.57 -8 17.6 74 -11.8 10.8 -7.59 -0.299
07:27 1003 29.62 832 24.57 -7.7 18.2 72 -11.8 10.7 -7.36 -0.29
07:28 1003 29.62 832 24.57 -7.6 18.3 72 -11.9 10.6 -7.27 -0.286
07:29 1003 29.62 832 24.57 -7.7 18.2 72 -11.9 10.6 -7.37 -0.29
07:30 1003 29.62 832 24.57 -7.9 17.9 73 -11.9 10.6 -7.43 -0.293
07:31 1003 29.62 832 24.57 -7.9 17.9 74 -11.6 11 -7.47 -0.294
07:32 1003 29.62 832 24.57 -7.7 18.2 73 -11.6 11 -7.25 -0.285
07:33 1003 29.62 832 24.57 -7.4 18.7 72 -11.6 11.2 -7.04 -0.277
07:34 1003 29.62 832 24.57 -7.2 19.1 71 -11.6 11 -6.786 -0.267
07:35 1003 29.62 832 24.57 -7 19.4 70 -11.6 11.2 -6.638 -0.261
07:36 1003 29.62 832 24.57 -6.8 19.7 70 -11.5 11.3 -6.548 -0.258
07:37 1003 29.62 832 24.57 -6.7 19.9 69 -11.5 11.2 -6.4 -0.252
07:38 1003 29.62 832 24.57 -6.7 20 69 -11.5 11.3 -6.321 -0.249
07:39 1003 29.62 832 24.57 -6.7 20 69 -11.4 11.4 -6.349 -0.25
07:40 1003 29.62 832 24.57 -6.8 19.8 69 -11.5 11.2 -6.383 -0.251
07:41 1003 29.62 832 24.57 -6.8 19.8 69 -11.4 11.4 -6.372 -0.251
07:42 1003 29.62 832 24.57 -6.8 19.8 70 -11.4 11.5 -6.343 -0.25
07:43 1003 29.62 832 24.57 -6.7 20 70 -11.3 11.6 -6.247 -0.246
07:44 1003 29.62 832 24.57 -6.5 20.3 69 -11.3 11.7 -6.122 -0.241
07:45 1003 29.62 832 24.57 -6.4 20.4 69 -11.2 11.9 -6.054 -0.238
07:46 1003 29.62 832 24.57 -6.4 20.5 69 -11.3 11.7 -6.009 -0.237
07:47 1003 29.62 832 24.57 -6.4 20.6 69 -11.2 11.9 -5.992 -0.236
07:48 1003 29.62 832 24.57 -6.3 20.6 69 -11.2 11.9 -5.935 -0.234
07:49 1003 29.62 832 24.57 -6.3 20.7 69 -11.1 11.9 -5.89 -0.232
07:50 1003 29.62 832 24.57 -6.2 20.8 68 -11.2 11.9 -5.85 -0.23
07:51 1003 29.62 832 24.57 -6.2 20.8 69 -11.1 12 -5.844 -0.23
07:52 1003 29.62 832 24.57 -6.2 20.9 69 -11 12.1 -5.81 -0.229
07:53 1003 29.62 832 24.57 -6.2 20.9 69 -11 12.3 -5.816 -0.229
07:54 1003 29.62 832 24.57 -6.2 20.9 69 -10.9 12.4 -5.765 -0.227
07:55 1003 29.62 832 24.57 -6 21.1 69 -10.9 12.4 -5.629 -0.222
07:56 1003 29.62 832 24.57 -5.9 21.4 68 -10.9 12.4 -5.504 -0.217
07:57 1003 29.62 832 24.57 -5.8 21.6 68 -10.8 12.6 -5.379 -0.212
07:58 1003 29.62 832 24.57 -5.7 21.8 68 -10.7 12.7 -5.322 -0.21
07:59 1003 29.62 832 24.57 -5.6 21.9 68 -10.7 12.8 -5.237 -0.206
08:00 1003 29.62 832 24.57 -5.5 22.1 67 -10.7 12.8 -5.113 -0.201
08:01 1003 29.62 832 24.57 -5.4 22.3 67 -10.6 12.9 -5.073 -0.2
08:02 1003 29.62 832 24.57 -5.4 22.3 67 -10.6 12.9 -4.966 -0.196
08:03 1003 29.62 832 24.57 -5.3 22.5 67 -10.5 13 -4.859 -0.191
08:04 1003 29.62 832 24.57 -5.2 22.6 67 -10.5 13.1 -4.842 -0.191
08:05 1003 29.62 832 24.57 -5.1 22.7 67 -10.4 13.3 -4.797 -0.189
08:06 1003 29.62 832 24.57 -5.1 22.7 67 -10.4 13.3 -4.763 -0.188
08:07 1003 29.62 832 24.57 -5.1 22.8 66 -10.4 13.3 -4.701 -0.185
08:08 1003 29.62 832 24.57 -5 23.1 66 -10.4 13.3 -4.582 -0.18
08:09 1003 29.62 832 24.57 -4.9 23.2 66 -10.4 13.3 -4.514 -0.178
08:10 1003 29.62 832 24.57 -4.8 23.4 65 -10.4 13.3 -4.424 -0.174
08:11 1003 29.62 832 24.57 -4.7 23.5 64 -10.5 13.2 -4.402 -0.173
08:12 1003 29.62 832 24.57 -5 23 65 -10.6 12.9 -4.679 -0.184
08:13 1003 29.62 832 24.57 -5.4 22.3 66 -10.7 12.7 -5.02 -0.198
08:14 1003 29.62 832 24.57 -5.3 22.4 67 -10.6 12.9 -4.946 -0.195
08:15 1003 29.62 832 24.57 -4.9 23.1 65 -10.5 13.1 -4.566 -0.18
08:16 1003 29.62 832 24.57 -4.5 23.9 64 -10.4 13.3 -4.13 -0.163
08:17 1003 29.62 832 24.57 -4.2 24.4 63 -10.2 13.6 -3.937 -0.155
08:18 1003 29.62 832 24.57 -4.2 24.4 63 -10.2 13.6 -3.847 -0.151
08:19 1003 29.62 832 24.57 -4.2 24.5 63 -10.2 13.6 -3.813 -0.15
08:20 1003 29.62 832 24.57 -4.2 24.4 63 -10.3 13.4 -3.909 -0.154
08:21 1003 29.62 832 24.57 -4.7 23.6 64 -10.4 13.3 -4.25 -0.167
08:22 1003 29.62 832 24.57 -4.9 23.2 67 -10.1 13.8 -4.443 -0.175
08:23 1003 29.62 832 24.57 -4.7 23.5 65 -10.3 13.4 -4.307 -0.17
08:24 1003 29.62 832 24.57 -4.5 23.9 64 -10.3 13.5 -4.051 -0.159
08:25 1003 29.62 832 24.57 -4.3 24.2 64 -10.2 13.6 -3.978 -0.157
08:26 1003 29.62 832 24.57 -4.2 24.5 62 -10.3 13.4 -3.819 -0.15
08:27 1003 29.62 832 24.57 -4 24.7 62 -10.3 13.5 -3.694 -0.145
08:28 1003 29.62 832 24.57 -3.9 25 61 -10.3 13.4 -3.553 -0.14
08:29 1003 29.62 832 24.57 -3.7 25.3 60 -10.3 13.4 -3.349 -0.132
08:30 1003 29.62 832 24.57 -3.6 25.5 60 -10.4 13.3 -3.246 -0.128
08:31 1003 29.62 832 24.57 -3.5 25.7 59 -10.3 13.5 -3.133 -0.123
08:32 1003 29.62 832 24.57 -3.6 25.6 61 -10.1 13.8 -3.19 -0.126
08:33 1003 29.62 832 24.57 -3.7 25.3 62 -10 14 -3.337 -0.131
08:34 1003 29.62 832 24.57 -3.9 24.9 63 -10.1 13.9 -3.508 -0.138
08:35 1003 29.62 832 24.57 -4.1 24.7 63 -10 14 -3.649 -0.144
08:36 1003 29.62 832 24.57 -4.2 24.5 64 -10 13.9 -3.774 -0.149
08:37 1003 29.62 832 24.57 -4.3 24.3 64 -10.1 13.8 -3.859 -0.152
08:38 1003 29.62 832 24.57 -4.3 24.3 64 -10 13.9 -3.888 -0.153
08:39 1003 29.62 832 24.57 -4.4 24.1 65 -10.1 13.9 -4.007 -0.158
08:40 1003 29.62 832 24.57 -4.5 24 64 -10.2 13.7 -4.064 -0.16
08:41 1003 29.62 832 24.57 -4.4 24.1 64 -10.2 13.7 -4.008 -0.158
08:42 1003 29.62 832 24.57 -4.3 24.2 64 -10.1 13.7 -3.946 -0.155
08:43 1003 29.62 832 24.57 -4.3 24.3 64 -10.1 13.9 -3.907 -0.154
08:44 1003 29.62 832 24.57 -4.2 24.4 64 -10 13.9 -3.85 -0.152
08:45 1003 29.62 832 24.57 -4.2 24.4 64 -10 14 -3.782 -0.149
08:46 1003 29.62 832 24.57 -4.2 24.5 64 -10 14 -3.749 -0.148
08:47 1003 29.62 832 24.57 -4 24.8 63 -10 14 -3.59 -0.141
08:48 1003 29.62 832 24.57 -3.8 25.1 63 -9.9 14.1 -3.409 -0.134
08:49 1003 29.62 832 24.57 -3.7 25.3 62 -9.9 14.1 -3.353 -0.132
08:50 1003 29.62 832 24.57 -3.7 25.4 62 -10 14.1 -3.307 -0.13
08:51 1003 29.62 832 24.57 -3.6 25.5 62 -9.9 14.3 -3.296 -0.13
08:52 1003 29.62 832 24.57 -3.6 25.5 62 -10 14.1 -3.263 -0.128
08:53 1003 29.62 832 24.57 -3.5 25.7 61 -10.1 13.8 -3.149 -0.124
08:54 1003 29.62 832 24.57 -3.4 25.9 61 -10 14.1 -3.036 -0.12
08:55 1003 29.62 832 24.57 -3.4 25.9 60 -10 14 -3.036 -0.12
08:56 1003 29.62 832 24.57 -3.4 25.8 61 -10 14 -3.076 -0.121
08:57 1003 29.62 832 24.57 -3.5 25.6 61 -9.9 14.2 -3.161 -0.124
08:58 1003 29.62 832 24.57 -3.7 25.3 63 -9.8 14.4 -3.299 -0.13
08:59 1003 29.62 832 24.57 -4 24.9 62 -10.2 13.6 -3.486 -0.137
09:00 1003 29.62 832 24.57 -4.2 24.4 63 -10.2 13.6 -3.747 -0.148
09:01 1003 29.62 832 24.57 -4.5 23.9 65 -10.1 13.8 -4.03 -0.159
09:02 1003 29.62 832 24.57 -4.7 23.5 67 -10 13.9 -4.274 -0.168
09:03 1003 29.62 832 24.57 -4.9 23.2 68 -10 14.1 -4.41 -0.174
09:04 1003 29.62 832 24.57 -4.8 23.4 67 -10.1 13.9 -4.353 -0.171
09:05 1003 29.62 832 24.57 -4.5 23.9 65 -10.1 13.9 -4.098 -0.161
09:06 1003 29.62 832 24.57 -4.2 24.4 65 -9.9 14.2 -3.861 -0.152
09:07 1003 29.62 832 24.57 -4.1 24.6 64 -9.8 14.3 -3.788 -0.149
09:08 1003 29.62 832 24.57 -4 24.8 64 -9.9 14.2 -3.68 -0.145
09:09 1003 29.62 832 24.57 -3.9 25 63 -9.9 14.2 -3.522 -0.139
09:10 1003 29.62 832 24.57 -3.8 25.1 63 -9.9 14.2 -3.409 -0.134
09:11 1003 29.62 832 24.57 -3.9 25 64 -9.7 14.5 -3.426 -0.135
09:12 1003 29.62 832 24.57 -4.1 24.7 64 -9.9 14.2 -3.613 -0.142
09:13 1003 29.62 832 24.57 -4.2 24.5 65 -9.9 14.2 -3.687 -0.145
09:14 1003 29.62 832 24.57 -4.2 24.5 65 -9.9 14.2 -3.699 -0.146
09:15 1003 29.62 832 24.57 -4.1 24.6 64 -9.9 14.1 -3.688 -0.145
09:16 1003 29.62 832 24.57 -4.1 24.6 64 -10 14.1 -3.637 -0.143
09:17 1003 29.62 832 24.57 -4 24.9 63 -10 14.1 -3.512 -0.138
09:18 1003 29.62 832 24.57 -3.8 25.1 62 -10 14.1 -3.405 -0.134
09:19 1003 29.62 832 24.57 -3.7 25.4 62 -9.9 14.2 -3.28 -0.129
09:20 1003 29.62 832 24.57 -3.7 25.4 62 -9.9 14.2 -3.258 -0.128
09:21 1003 29.62 832 24.57 -3.6 25.5 62 -9.8 14.3 -3.196 -0.126
09:22 1003 29.62 832 24.57 -3.6 25.5 63 -9.8 14.4 -3.179 -0.125
09:23 1003 29.62 832 24.57 -3.6 25.5 63 -9.8 14.4 -3.224 -0.127
09:24 1003 29.62 832 24.57 -3.8 25.1 63 -9.9 14.1 -3.44 -0.135
09:25 1003 29.62 832 24.57 -4.4 24.1 66 -9.9 14.2 -3.956 -0.156
09:26 1003 29.62 832 24.57 -4.7 23.6 68 -9.8 14.4 -4.216 -0.166
09:27 1003 29.62 832 24.57 -4.8 23.4 68 -9.8 14.3 -4.364 -0.172
09:28 1003 29.62 832 24.57 -4.9 23.2 68 -9.8 14.3 -4.443 -0.175
09:29 1003 29.62 832 24.57 -4.9 23.1 69 -9.8 14.4 -4.494 -0.177
09:30 1003 29.62 832 24.57 -5 23.1 69 -9.9 14.2 -4.523 -0.178
09:31 1003 29.62 832 24.57 -4.8 23.3 68 -9.9 14.2 -4.421 -0.174
09:32 1003 29.62 832 24.57 -4.8 23.4 68 -9.8 14.3 -4.364 -0.172
09:33 1003 29.62 832 24.57 -4.8 23.4 68 -9.7 14.5 -4.404 -0.173
09:34 1003 29.62 832 24.57 -4.9 23.2 69 -9.7 14.6 -4.54 -0.179
09:35 1003 29.62 832 24.57 -5 23 69 -9.9 14.2 -4.58 -0.18
09:36 1003 29.62 832 24.57 -5 23 69 -9.8 14.3 -4.642 -0.183
09:37 1003 29.62 832 24.57 -5.1 22.8 70 -9.8 14.4 -4.688 -0.185
09:38 1003 29.62 832 24.57 -5.1 22.8 71 -9.6 14.6 -4.716 -0.186
09:39 1003 29.62 832 24.57 -5 23 70 -9.7 14.6 -4.62 -0.182
09:40 1003 29.62 832 24.57 -4.9 23.2 70 -9.6 14.8 -4.472 -0.176
09:41 1003 29.62 832 24.57 -4.8 23.4 70 -9.5 14.9 -4.342 -0.171
09:42 1003 29.62 832 24.57 -4.7 23.6 69 -9.4 15 -4.2 -0.165
09:43 1003 29.62 832 24.57 -4.6 23.8 69 -9.4 15.1 -4.121 -0.162
09:44 1003 29.62 832 24.57 -4.5 23.9 68 -9.5 14.9 -4.03 -0.159
09:45 1003 29.62 832 24.57 -4.3 24.2 67 -9.6 14.8 -3.832 -0.151
09:46 1003 29.62 832 24.57 -4.1 24.7 66 -9.6 14.8 -3.588 -0.141
09:47 1003 29.62 832 24.57 -3.9 25.1 65 -9.5 14.9 -3.412 -0.134
09:48 1003 29.62 832 24.57 -3.7 25.4 64 -9.4 15 -3.254 -0.128
09:49 1003 29.62 832 24.57 -3.6 25.6 64 -9.5 14.9 -3.095 -0.122
09:50 1003 29.62 832 24.57 -3.5 25.8 63 -9.5 14.9 -2.993 -0.118
09:51 1003 29.62 832 24.57 -3.3 26 62 -9.5 14.9 -2.88 -0.113
09:52 1003 29.62 832 24.57 -3.2 26.3 62 -9.4 15 -2.761 -0.109
09:53 1003 29.62 832 24.57 -3.1 26.5 62 -9.4 15 -2.636 -0.104
09:54 1003 29.62 832 24.57 -3 26.6 61 -9.4 15 -2.54 -0.1
09:55 1003 29.62 832 24.57 -2.9 26.7 62 -9.3 15.3 -2.489 -0.098
09:56 1003 29.62 832 24.57 -2.9 26.7 62 -9.1 15.5 -2.449 -0.096
09:57 1003 29.62 832 24.57 -3 26.7 63 -9 15.7 -2.432 -0.096
09:58 1003 29.62 832 24.57 -3 26.7 63 -9 15.9 -2.494 -0.098
09:59 1003 29.62 832 24.57 -3 26.6 63 -9.2 15.5 -2.501 -0.098
10:00 1003 29.62 832 24.57 -3 26.7 61 -9.4 15.1 -2.45 -0.096
10:01 1003 29.62 832 24.57 -3 26.7 62 -9.3 15.2 -2.405 -0.095
10:02 1003 29.62 832 24.57 -3 26.6 62 -9.4 15.2 -2.417 -0.095
10:03 1003 29.62 832 24.57 -2.9 26.7 61 -9.5 15 -2.389 -0.094
10:04 1003 29.62 832 24.57 -2.8 27 60 -9.6 14.7 -2.224 -0.088
10:05 1003 29.62 832 24.57 -2.7 27.2 60 -9.3 15.2 -2.14 -0.084
10:06 1003 29.62 832 24.57 -3.1 26.5 63 -9.1 15.6 -2.537 -0.1
10:07 1003 29.62 832 24.57 -3.7 25.4 66 -9.2 15.5 -3.155 -0.124
10:08 1003 29.62 832 24.57 -3.9 25 66 -9.3 15.2 -3.496 -0.138
10:09 1003 29.62 832 24.57 -4.1 24.7 66 -9.5 14.9 -3.677 -0.145
10:10 1003 29.62 832 24.57 -4 24.8 66 -9.6 14.8 -3.643 -0.143
10:11 1003 29.62 832 24.57 -3.8 25.1 65 -9.5 14.8 -3.451 -0.136
10:12 1003 29.62 832 24.57 -3.6 25.6 63 -9.6 14.7 -3.196 -0.126
10:13 1003 29.62 832 24.57 -3.2 26.2 62 -9.6 14.8 -2.833 -0.112
10:14 1003 29.62 832 24.57 -3 26.6 61 -9.5 14.9 -2.567 -0.101
10:15 1003 29.62 832 24.57 -2.8 26.9 60 -9.5 14.9 -2.335 -0.092
10:16 1003 29.62 832 24.57 -2.6 27.3 60 -9.4 15 -2.176 -0.086
10:17 1003 29.62 832 24.57 -2.4 27.6 59 -9.3 15.2 -2.035 -0.08
10:18 1003 29.62 832 24.57 -2.3 27.9 59 -9.3 15.3 -1.984 -0.078
10:19 1003 29.62 832 24.57 -2.2 28.1 59 -9.1 15.7 -1.848 -0.073
10:20 1003 29.62 832 24.57 -2 28.4 60 -8.8 16.1 -1.689 -0.066
10:21 1003 29.62 832 24.57 -2 28.4 57 -9.4 15.1 -1.564 -0.062
10:22 1003 29.62 832 24.57 -2 28.4 57 -9.4 15 -1.395 -0.055
10:23 1003 29.62 832 24.57 -1.9 28.7 57 -9.4 15.1 -1.294 -0.051
10:24 1003 29.62 832 24.57 -1.9 28.7 58 -9 15.7 -1.271 -0.05
10:25 1003 29.62 832 24.57 -2 28.3 59 -9.1 15.7 -1.459 -0.057
10:26 1003 29.62 832 24.57 -2.2 28 60 -9 15.8 -1.698 -0.067
10:27 1003 29.62 832 24.57 -2.6 27.4 61 -9 15.8 -2.117 -0.083
10:28 1003 29.62 832 24.57 -2.8 26.9 63 -9 15.9 -2.412 -0.095
10:29 1003 29.62 832 24.57 -3 26.6 63 -9 15.8 -2.639 -0.104
10:30 1003 29.62 832 24.57 -2.9 26.8 61 -9.4 15 -2.583 -0.102
10:31 1003 29.62 832 24.57 -2.6 27.3 58 -9.7 14.6 -2.288 -0.09
10:32 1003 29.62 832 24.57 -2.2 28.1 56 -9.7 14.5 -1.852 -0.073
10:33 1003 29.62 832 24.57 -1.9 28.6 56 -9.6 14.7 -1.535 -0.06
10:34 1003 29.62 832 24.57 -1.6 29.1 55 -9.6 14.8 -1.292 -0.051
10:35 1003 29.62 832 24.57 -1.4 29.4 54 -9.5 14.8 -0.997 -0.039
10:36 1003 29.62 832 24.57 -1.3 29.6 54 -9.4 15 -0.81 -0.032
10:37 1003 29.62 832 24.57 -1.3 29.7 54 -9.5 15 -0.686 -0.027
10:38 1003 29.62 832 24.57 -1.2 29.8 53 -9.5 14.9 -0.595 -0.023
10:39 1003 29.62 832 24.57 -1.1 30 53 -9.5 15 -0.493 -0.019
10:40 1003 29.62 832 24.57 -1 30.1 54 -9.2 15.4 -0.358 -0.014
10:41 1003 29.62 832 24.57 -1 30.1 56 -8.8 16.2 -0.227 -0.009
10:42 1003 29.62 832 24.57 -1.2 29.8 58 -8.5 16.7 -0.233 -0.009
10:43 1003 29.62 832 24.57 -1.3 29.6 59 -8.3 17.1 -0.189 -0.007
10:44 1003 29.62 832 24.57 -1.2 29.9 59 -8.3 17.1 -0.291 -0.011
10:45 1003 29.62 832 24.57 -1 30.1 58 -8.3 17.1 -0.399 -0.016
10:46 1003 29.62 832 24.57 -1.1 30 60 -7.9 17.7 -0.559 -0.022
10:47 1003 29.62 832 24.57 -1.4 29.6 60 -8.2 17.3 -0.763 -0.03
10:48 1003 29.62 832 24.57 -1.5 29.2 60 -8.3 17 -0.99 -0.039
10:49 1003 29.62 832 24.57 -1.6 29 60 -8.4 16.8 -1.133 -0.045
10:50 1003 29.62 832 24.57 -1.8 28.7 60 -8.5 16.7 -1.349 -0.053
10:51 1003 29.62 832 24.57 -2 28.4 62 -8.3 17.1 -1.564 -0.062
10:52 1003 29.62 832 24.57 -2.1 28.2 62 -8.4 16.8 -1.708 -0.067
10:53 1003 29.62 832 24.57 -2.2 28.1 62 -8.5 16.7 -1.776 -0.07
10:54 1003 29.62 832 24.57 -2.1 28.2 61 -8.7 16.3 -1.946 -0.077
10:55 1003 29.62 832 24.57 -2.1 28.2 60 -8.8 16.1 -2.083 -0.082
10:56 1003 29.62 832 24.57 -2 28.5 59 -9 15.8 -2.134 -0.084
10:57 1003 29.62 832 24.57 -1.7 28.9 57 -9.2 15.5 -2.106 -0.083
10:58 1003 29.62 832 24.57 -1.5 29.3 56 -9.1 15.5 -1.954 -0.077
10:59 1003 29.62 832 24.57 -1.5 29.4 56 -9.1 15.7 -1.824 -0.072
11:00 1003 29.62 832 24.57 -1.5 29.3 57 -9 15.8 -1.762 -0.069
11:01 1003 29.62 832 24.57 -1.6 29.1 57 -9 15.7 -1.751 -0.069
11:02 1003 29.62 832 24.57 -1.6 29.1 58 -8.9 16 -1.734 -0.068
11:03 1003 29.62 832 24.57 -1.7 29 58 -8.8 16.2 -1.678 -0.066
11:04 1003 29.62 832 24.57 -1.6 29.1 59 -8.6 16.6 -1.61 -0.063
11:05 1003 29.62 832 24.57 -1.6 29.2 60 -8.4 16.9 -1.571 -0.062
11:06 1003 29.62 832 24.57 -1.5 29.3 61 -8 17.7 -1.52 -0.06
11:07 1003 29.62 832 24.57 -1.5 29.2 59 -8.6 16.6 -1.566 -0.062
11:08 1003 29.62 832 24.57 -1.6 29.1 58 -8.9 16 -1.639 -0.065
11:09 1003 29.62 832 24.57 -1.7 29 57 -9 15.7 -1.606 -0.063
11:10 1003 29.62 832 24.57 -1.6 29 57 -9.1 15.7 -1.562 -0.061
11:11 1003 29.62 832 24.57 -1.6 29.1 57 -9 15.8 -1.511 -0.059
11:12 1003 29.62 832 24.57 -1.5 29.3 57 -8.9 16 -1.415 -0.056
11:13 1003 29.62 832 24.57 -1.5 29.3 57 -8.9 15.9 -1.382 -0.054
11:14 1003 29.62 832 24.57 -1.4 29.5 58 -8.7 16.3 -1.325 -0.052
11:15 1003 29.62 832 24.57 -1.3 29.7 56 -8.9 15.9 -1.167 -0.046
11:16 1003 29.62 832 24.57 -1.2 29.8 56 -9 15.8 -1.089 -0.043
11:17 1003 29.62 832 24.57 -1.1 29.9 57 -8.6 16.5 -1.06 -0.042
11:18 1003 29.62 832 24.57 -1.1 30 58 -8.4 16.9 -0.982 -0.039
11:19 1003 29.62 832 24.57 -1.1 30.1 56 -8.7 16.3 -0.938 -0.037
11:20 1003 29.62 832 24.57 -1 30.2 54 -9.1 15.5 -0.898 -0.035
11:21 1003 29.62 832 24.57 -0.9 30.4 55 -9 15.9 -0.803 -0.032
11:22 1003 29.62 832 24.57 -0.8 30.6 56 -8.4 16.8 -0.702 -0.028
11:23 1003 29.62 832 24.57 -0.6 30.8 56 -8.3 17.1 -0.537 -0.021
11:24 1003 29.62 832 24.57 -0.5 31.2 55 -8.4 16.9 -0.414 -0.016
11:25 1003 29.62 832 24.57 -0.4 31.3 55 -8.4 17 -0.324 -0.013
11:26 1003 29.62 832 24.57 -0.3 31.5 56 -8 17.7 -0.256 -0.01
11:27 1003 29.62 832 24.57 -0.2 31.6 56 -8 17.7 -0.143 -0.006
11:28 1003 29.62 832 24.57 -0.2 31.6 55 -8.1 17.4 -0.2 -0.008
11:29 1003 29.62 832 24.57 -0.2 31.6 56 -8.1 17.5 -0.268 -0.011
11:30 1003 29.62 832 24.57 -0.3 31.5 56 -8.1 17.5 -0.252 -0.01
11:31 1003 29.62 832 24.57 -0.2 31.6 55 -8.2 17.3 -0.162 -0.006
11:32 1003 29.62 832 24.57 -0.1 31.8 55 -8.1 17.4 -0.094 -0.004
11:33 1003 29.62 832 24.57 -0 31.9 55 -8 17.5 -0.015 -0.001
11:34 1003 29.62 832 24.57 0 32 55 -8 17.6 0.042 0.002
11:35 1003 29.62 832 24.57 0.1 32.2 54 -8.1 17.5 0.115 0.005
11:36 1003 29.62 832 24.57 0.2 32.3 55 -7.9 17.8 0.217 0.009
11:37 1003 29.62 832 24.57 0.2 32.4 55 -7.7 18.1 0.284 0.011
11:38 1003 29.62 832 24.57 0.2 32.4 55 -7.7 18.1 0.216 0.009
11:39 1003 29.62 832 24.57 0.2 32.3 53 -8.2 17.3 0.175 0.007
11:40 1003 29.62 832 24.57 0.2 32.4 53 -8.3 17.1 0.203 0.008
11:41 1003 29.62 832 24.57 0.2 32.4 51 -8.9 16 0.254 0.01
11:42 1003 29.62 832 24.57 0.4 32.6 51 -8.6 16.4 0.377 0.015
11:43 1003 29.62 832 24.57 0.5 32.9 52 -8.4 16.9 0.547 0.022
11:44 1002 29.59 832 24.57 0.6 33.1 52 -8.1 17.5 0.626 0.025
11:45 1002 29.59 832 24.57 0.6 33.2 52 -8 17.5 0.676 0.027
11:46 1002 29.59 832 24.57 0.7 33.3 53 -7.9 17.8 0.682 0.027
11:47 1002 29.59 832 24.57 0.7 33.2 53 -7.8 17.9 0.75 0.03
11:48 1002 29.59 832 24.57 0.6 33.1 53 -7.9 17.8 0.708 0.028
11:49 1002 29.59 832 24.57 0.5 32.8 54 -7.7 18.1 0.538 0.021
11:50 1003 29.62 832 24.57 0.3 32.6 54 -8 17.6 0.425 0.017
11:51 1003 29.62 832 24.57 0.1 32.2 55 -7.9 17.7 0.378 0.015
11:52 1003 29.62 832 24.57 -0 31.9 54 -8.3 17.1 0.293 0.012
11:53 1002 29.59 832 24.57 -0.2 31.6 54 -8.4 16.9 0.247 0.01
11:54 1002 29.59 832 24.57 -0.3 31.4 58 -7.7 18.1 0.133 0.005
11:55 1002 29.59 832 24.57 -0.7 30.7 57 -8.2 17.3 -0.156 -0.006
11:56 1002 29.59 832 24.57 -1.1 30 57 -8.5 16.6 -0.581 -0.023
11:57 1002 29.59 832 24.57 -1.4 29.5 58 -8.7 16.4 -0.82 -0.032
11:58 1002 29.59 832 24.57 -1.5 29.2 59 -8.6 16.6 -0.967 -0.038
11:59 1002 29.59 832 24.57 -1.7 28.9 60 -8.5 16.7 -1.115 -0.044
12:00 1002 29.59 832 24.57 -1.9 28.6 61 -8.4 16.8 -1.291 -0.051
12:01 1002 29.59 832 24.57 -2 28.3 61 -8.5 16.7 -1.398 -0.055
12:02 1002 29.59 832 24.57 -2.2 28 61 -8.7 16.4 -1.602 -0.063
12:03 1002 29.59 832 24.57 -2.4 27.7 62 -8.7 16.4 -1.795 -0.071
12:04 1002 29.59 832 24.57 -2.5 27.4 63 -8.6 16.5 -1.982 -0.078
12:05 1002 29.59 832 24.57 -2.7 27.1 64 -8.6 16.5 -2.175 -0.086
12:06 1002 29.59 832 24.57 -3 26.6 66 -8.5 16.8 -2.385 -0.094
12:07 1002 29.59 832 24.57 -3.2 26.3 67 -8.5 16.8 -2.515 -0.099
12:08 1002 29.59 832 24.57 -2.9 26.7 67 -8.3 17.1 -2.419 -0.095
12:09 1002 29.59 832 24.57 -2.7 27.2 65 -8.4 16.9 -2.125 -0.084
12:10 1002 29.59 831 24.54 -2.4 27.6 62 -8.8 16.2 -1.858 -0.073
12:11 1002 29.59 831 24.54 -2.1 28.2 60 -8.8 16.2 -1.581 -0.062
12:12 1002 29.59 831 24.54 -1.9 28.6 61 -8.5 16.7 -1.338 -0.053
12:13 1002 29.59 831 24.54 -1.8 28.7 61 -8.4 16.9 -1.213 -0.048
12:14 1002 29.59 831 24.54 -1.9 28.6 61 -8.4 16.9 -1.265 -0.05
12:15 1002 29.59 831 24.54 -2 28.4 61 -8.5 16.7 -1.333 -0.052
12:16 1002 29.59 831 24.54 -2.1 28.2 61 -8.5 16.6 -1.451 -0.057
12:17 1002 29.59 831 24.54 -2.1 28.2 63 -8.3 17.1 -1.469 -0.058
12:18 1002 29.59 831 24.54 -2.3 27.9 64 -8.2 17.2 -1.565 -0.062
12:19 1002 29.59 831 24.54 -2.4 27.6 64 -8.4 16.9 -1.752 -0.069
12:20 1002 29.59 831 24.54 -2.5 27.5 64 -8.5 16.7 -1.905 -0.075
12:21 1002 29.59 831 24.54 -2.6 27.4 64 -8.4 16.9 -1.95 -0.077
12:22 1002 29.59 831 24.54 -2.6 27.2 65 -8.4 16.8 -1.978 -0.078
12:23 1002 29.59 831 24.54 -2.7 27.1 66 -8.3 17.1 -2.075 -0.082
12:24 1002 29.59 831 24.54 -2.8 27 65 -8.4 16.9 -2.148 -0.085
12:25 1002 29.59 831 24.54 -2.8 26.9 66 -8.4 16.9 -2.239 -0.088
12:26 1002 29.59 831 24.54 -2.9 26.8 67 -8.3 17.1 -2.296 -0.09
12:27 1002 29.59 831 24.54 -3 26.7 67 -8.3 17 -2.324 -0.091
12:28 1002 29.59 831 24.54 -2.9 26.7 67 -8.3 17.1 -2.341 -0.092
12:29 1002 29.59 831 24.54 -2.8 26.9 65 -8.5 16.7 -2.307 -0.091
12:30 1002 29.59 831 24.54 -2.7 27.1 64 -8.6 16.6 -2.2 -0.087
12:31 1002 29.59 831 24.54 -2.6 27.3 64 -8.6 16.6 -2.052 -0.081
12:32 1002 29.59 831 24.54 -2.5 27.5 64 -8.4 16.9 -1.956 -0.077
12:33 1002 29.59 831 24.54 -2.5 27.6 64 -8.3 17 -1.939 -0.076
12:34 1002 29.59 831 24.54 -2.4 27.6 64 -8.4 16.9 -1.939 -0.076
12:35 1002 29.59 831 24.54 -2.4 27.6 64 -8.2 17.2 -1.9 -0.075
12:36 1002 29.59 831 24.54 -2.4 27.7 64 -8.3 17 -1.883 -0.074
12:37 1002 29.59 831 24.54 -2.3 27.8 61 -8.8 16.2 -1.803 -0.071
12:38 1002 29.59 831 24.54 -2.2 28 63 -8.5 16.8 -1.724 -0.068
12:39 1002 29.59 831 24.54 -2.2 28.1 62 -8.5 16.7 -1.651 -0.065
12:40 1002 29.59 831 24.54 -2.1 28.2 62 -8.6 16.6 -1.6 -0.063
12:41 1002 29.59 831 24.54 -2.1 28.3 61 -8.6 16.6 -1.537 -0.061
12:42 1002 29.59 831 24.54 -2 28.3 62 -8.4 16.9 -1.492 -0.059
12:43 1002 29.59 831 24.54 -2 28.3 61 -8.5 16.7 -1.47 -0.058
12:44 1002 29.59 831 24.54 -2 28.4 60 -8.7 16.3 -1.464 -0.058
12:45 1002 29.59 831 24.54 -2 28.3 63 -8.2 17.3 -1.458 -0.057
12:46 1002 29.59 831 24.54 -2.1 28.3 62 -8.3 17 -1.475 -0.058
12:47 1002 29.59 831 24.54 -2.1 28.2 62 -8.5 16.7 -1.492 -0.059
12:48 1002 29.59 831 24.54 -2 28.4 62 -8.5 16.8 -1.447 -0.057
12:49 1002 29.59 831 24.54 -2 28.5 62 -8.3 17 -1.379 -0.054
12:50 1002 29.59 831 24.54 -1.9 28.5 62 -8.3 17 -1.322 -0.052
12:51 1002 29.59 831 24.54 -1.9 28.5 62 -8.3 17.1 -1.266 -0.05
12:52 1002 29.59 831 24.54 -1.9 28.7 61 -8.3 17 -1.198 -0.047
12:53 1002 29.59 831 24.54 -1.8 28.7 63 -8 17.7 -1.175 -0.046
12:54 1002 29.59 831 24.54 -1.9 28.6 63 -8 17.6 -1.181 -0.046
12:55 1002 29.59 831 24.54 -1.9 28.6 64 -7.9 17.8 -1.215 -0.048
12:56 1002 29.59 831 24.54 -1.9 28.5 65 -7.8 18 -1.226 -0.048
12:57 1002 29.59 831 24.54 -2 28.4 66 -7.5 18.4 -1.277 -0.05
12:58 1002 29.59 831 24.54 -2 28.3 67 -7.4 18.6 -1.356 -0.053
12:59 1002 29.59 831 24.54 -2.1 28.2 66 -7.6 18.3 -1.419 -0.056
13:00 1002 29.59 831 24.54 -2.2 28.1 65 -7.8 17.9 -1.481 -0.058
13:01 1002 29.59 831 24.54 -2 28.3 65 -7.9 17.9 -1.447 -0.057
13:02 1002 29.59 831 24.54 -1.9 28.6 64 -7.8 17.9 -1.317 -0.052
13:03 1002 29.59 831 24.54 -1.8 28.8 66 -7.3 18.9 -1.141 -0.045
13:04 1002 29.59 831 24.54 -1.7 29 64 -7.6 18.4 -0.96 -0.038
13:05 1002 29.59 831 24.54 -1.6 29.2 63 -7.7 18.1 -0.937 -0.037
13:06 1002 29.59 831 24.54 -1.5 29.3 64 -7.4 18.7 -0.847 -0.033
13:07 1002 29.59 831 24.54 -1.5 29.4 64 -7.4 18.7 -0.773 -0.03
13:08 1002 29.59 831 24.54 -1.3 29.6 63 -7.4 18.6 -0.683 -0.027
13:09 1002 29.59 831 24.54 -1.2 29.8 62 -7.7 18.2 -0.57 -0.022
13:10 1002 29.59 831 24.54 -1.1 30 60 -7.9 17.7 -0.417 -0.016
13:11 1002 29.59 831 24.54 -1 30.3 58 -8.2 17.2 -0.269 -0.011
13:12 1002 29.59 831 24.54 -0.7 30.7 58 -8.1 17.5 0.002 0
13:13 1002 29.59 831 24.54 -0.5 31.1 58 -7.8 18 0.268 0.011
13:14 1002 29.59 831 24.54 -0.3 31.4 56 -8 17.6 0.506 0.02
13:15 1002 29.59 831 24.54 -0.1 31.8 55 -8.1 17.4 0.699 0.028
13:16 1002 29.59 831 24.54 0.1 32.1 54 -8.3 17.1 0.806 0.032
13:17 1002 29.59 831 24.54 0.1 32.2 53 -8.3 17.1 0.784 0.031
13:18 1002 29.59 831 24.54 0.2 32.4 54 -8 17.7 0.914 0.036
13:19 1002 29.59 831 24.54 0.3 32.5 54 -8.1 17.5 0.976 0.038
13:20 1002 29.59 831 24.54 0.4 32.8 53 -8.2 17.3 1.14 0.045
13:21 1002 29.59 831 24.54 0.6 33 50 -8.7 16.4 1.287 0.051
13:22 1002 29.59 831 24.54 0.7 33.2 49 -8.7 16.3 1.446 0.057
13:23 1002 29.59 831 24.54 0.8 33.4 50 -8.6 16.6 1.655 0.065
13:24 1002 29.59 831 24.54 0.9 33.6 51 -8.2 17.3 1.836 0.072
13:25 1002 29.59 831 24.54 1 33.7 54 -7.3 18.8 1.927 0.076
13:26 1002 29.59 831 24.54 0.8 33.5 52 -8 17.6 1.882 0.074
13:27 1002 29.59 831 24.54 0.7 33.3 51 -8.2 17.2 1.752 0.069
13:28 1002 29.59 831 24.54 0.7 33.2 52 -8.1 17.4 1.655 0.065
13:29 1001 29.56 831 24.54 0.6 33.1 51 -8.3 17.1 1.627 0.064
13:30 1001 29.56 831 24.54 0.6 33.1 52 -8.1 17.5 1.576 0.062
13:31 1001 29.56 831 24.54 0.6 33 54 -7.7 18.2 1.593 0.063
13:32 1001 29.56 831 24.54 0.6 33 51 -8.6 16.6 1.536 0.06
13:33 1001 29.56 831 24.54 0.5 32.9 51 -8.6 16.5 1.435 0.056
13:34 1001 29.56 831 24.54 0.5 32.8 52 -8.3 17 1.355 0.053
13:35 1001 29.56 831 24.54 0.5 32.9 52 -8.2 17.2 1.406 0.055
13:36 1001 29.56 831 24.54 0.4 32.8 54 -7.9 17.8 1.435 0.056
13:37 1001 29.56 831 24.54 0.4 32.8 55 -7.6 18.4 1.395 0.055
13:38 1001 29.56 831 24.54 0.4 32.8 55 -7.5 18.4 1.446 0.057
13:39 1001 29.56 831 24.54 0.4 32.8 55 -7.5 18.5 1.412 0.056
13:40 1001 29.56 831 24.54 0.3 32.6 54 -7.9 17.8 1.31 0.052
13:41 1001 29.56 831 24.54 0.2 32.4 57 -7.3 18.8 1.185 0.047
13:42 1001 29.56 831 24.54 0.2 32.4 58 -7.1 19.3 1.122 0.044
13:43 1001 29.56 831 24.54 0.1 32.2 58 -7.3 18.9 1.037 0.041
13:44 1001 29.56 831 24.54 0 32 60 -6.8 19.7 0.924 0.036
13:45 1001 29.56 831 24.54 -0.2 31.7 59 -7.3 18.9 0.702 0.028
13:46 1001 29.56 831 24.54 -0.4 31.2 61 -7.1 19.3 0.424 0.017
13:47 1001 29.56 831 24.54 -0.6 30.9 62 -7 19.5 0.175 0.007
13:48 1001 29.56 831 24.54 -0.8 30.6 63 -7 19.3 0.004 0
13:49 1001 29.56 831 24.54 -0.9 30.4 63 -7.2 19.1 -0.167 -0.007
13:50 1001 29.56 831 24.54 -1.1 30 64 -7.1 19.2 -0.331 -0.013
13:51 1001 29.56 831 24.54 -1.2 29.8 61 -7.8 17.9 -0.495 -0.019
13:52 1001 29.56 831 24.54 -1.3 29.6 60 -8.2 17.2 -0.642 -0.025
13:53 1001 29.56 831 24.54 -1.4 29.5 58 -8.6 16.5 -0.773 -0.03
13:54 1001 29.56 830 24.51 -1.4 29.4 57 -8.8 16.1 -0.865 -0.034
13:55 1001 29.56 830 24.51 -1.5 29.4 61 -8 17.6 -0.905 -0.036
13:56 1001 29.56 830 24.51 -1.6 29.2 63 -7.8 17.9 -0.961 -0.038
13:57 1001 29.56 830 24.51 -1.6 29.1 65 -7.5 18.6 -1.07 -0.042
13:58 1001 29.56 830 24.51 -1.7 29 63 -7.8 18 -1.138 -0.045
13:59 1001 29.56 830 24.51 -1.7 28.9 63 -7.8 17.9 -1.166 -0.046
14:00 1001 29.56 831 24.54 -1.7 28.9 65 -7.5 18.5 -1.149 -0.045
14:01 1001 29.56 830 24.51 -1.9 28.6 65 -7.5 18.5 -1.262 -0.05
14:02 1001 29.56 830 24.51 -2 28.4 65 -7.8 18 -1.41 -0.056
14:03 1001 29.56 830 24.51 -2.1 28.2 64 -8 17.6 -1.586 -0.062
14:04 1001 29.56 830 24.51 -2.2 28.1 63 -8.2 17.2 -1.631 -0.064
14:05 1001 29.56 830 24.51 -2.1 28.2 62 -8.5 16.7 -1.614 -0.064
14:06 1001 29.56 830 24.51 -2 28.4 61 -8.5 16.8 -1.541 -0.061
14:07 1001 29.56 830 24.51 -1.9 28.5 61 -8.5 16.6 -1.491 -0.059
14:08 1001 29.56 830 24.51 -1.9 28.7 61 -8.3 17 -1.434 -0.056
14:09 1001 29.56 830 24.51 -1.9 28.6 64 -7.7 18.1 -1.411 -0.056
14:10 1001 29.56 830 24.51 -2.1 28.3 64 -7.9 17.8 -1.507 -0.059
14:11 1001 29.56 830 24.51 -2.4 27.6 67 -7.8 18 -1.852 -0.073
14:12 1001 29.56 830 24.51 -2.6 27.4 67 -7.9 17.8 -2.044 -0.08
14:13 1001 29.56 830 24.51 -2.6 27.4 65 -8.2 17.2 -2.055 -0.081
14:14 1001 29.56 830 24.51 -2.4 27.6 63 -8.5 16.7 -1.976 -0.078
14:15 1001 29.56 831 24.54 -2.3 27.9 63 -8.4 16.8 -1.817 -0.072
14:16 1001 29.56 831 24.54 -2.2 28.1 65 -7.9 17.8 -1.704 -0.067
14:17 1001 29.56 831 24.54 -2.3 27.8 65 -7.9 17.7 -1.738 -0.068
14:18 1001 29.56 831 24.54 -2.5 27.5 65 -8.2 17.2 -1.925 -0.076
14:19 1001 29.56 831 24.54 -2.5 27.5 65 -8.3 17 -1.97 -0.078
14:20 1001 29.56 831 24.54 -2.4 27.7 64 -8.2 17.2 -1.834 -0.072
14:21 1001 29.56 831 24.54 -2.2 28.1 64 -8.1 17.4 -1.67 -0.066
14:22 1001 29.56 831 24.54 -2 28.4 63 -8.1 17.4 -1.534 -0.06
14:23 1001 29.56 831 24.54 -1.9 28.6 64 -7.8 17.9 -1.353 -0.053
14:24 1001 29.56 831 24.54 -1.8 28.8 65 -7.6 18.4 -1.228 -0.048
14:25 1001 29.56 830 24.51 -1.7 28.9 63 -7.9 17.8 -1.137 -0.045
14:26 1001 29.56 830 24.51 -1.7 29 63 -7.9 17.8 -1.103 -0.043
14:27 1001 29.56 830 24.51 -1.6 29.2 62 -8 17.6 -1.001 -0.039
14:28 1001 29.56 830 24.51 -1.5 29.3 62 -7.9 17.8 -0.956 -0.038
14:29 1001 29.56 831 24.54 -1.4 29.4 63 -7.5 18.4 -0.87 -0.034
14:30 1001 29.56 831 24.54 -1.5 29.3 63 -7.7 18.1 -0.864 -0.034
14:31 1001 29.56 831 24.54 -1.5 29.2 64 -7.4 18.7 -0.943 -0.037
14:32 1001 29.56 831 24.54 -1.5 29.2 63 -7.7 18.1 -0.914 -0.036
14:33 1001 29.56 831 24.54 -1.4 29.5 60 -8.3 17.1 -0.818 -0.032
14:34 1001 29.56 831 24.54 -1.2 29.9 63 -7.3 18.8 -0.659 -0.026
14:35 1001 29.56 831 24.54 -1.4 29.5 64 -7.4 18.8 -0.749 -0.029
14:36 1001 29.56 830 24.51 -1.8 28.8 65 -7.5 18.4 -1.179 -0.046
14:37 1001 29.56 830 24.51 -2 28.4 64 -7.9 17.7 -1.434 -0.056
14:38 1001 29.56 830 24.51 -2 28.4 61 -8.5 16.7 -1.512 -0.06
14:39 1001 29.56 831 24.54 -1.8 28.7 62 -8.2 17.2 -1.388 -0.055
14:40 1001 29.56 831 24.54 -1.8 28.8 63 -7.8 17.9 -1.308 -0.051
14:41 1001 29.56 831 24.54 -1.8 28.7 62 -8.1 17.5 -1.314 -0.052
14:42 1001 29.56 831 24.54 -2 28.3 63 -8.1 17.4 -1.483 -0.058
14:43 1001 29.56 831 24.54 -2.1 28.2 62 -8.5 16.7 -1.63 -0.064
14:44 1001 29.56 831 24.54 -2 28.5 61 -8.5 16.6 -1.5 -0.059
14:45 1001 29.56 831 24.54 -1.9 28.6 62 -8.3 17.1 -1.398 -0.055
14:46 1001 29.56 831 24.54 -2 28.5 62 -8.3 17 -1.432 -0.056
14:47 1001 29.56 831 24.54 -2.2 28.1 62 -8.5 16.7 -1.59 -0.063
14:48 1001 29.56 831 24.54 -2.4 27.7 63 -8.6 16.6 -1.862 -0.073
14:49 1001 29.56 831 24.54 -2.5 27.5 63 -8.6 16.6 -1.975 -0.078
14:50 1001 29.56 831 24.54 -2.5 27.6 63 -8.6 16.6 -1.946 -0.077
14:51 1001 29.56 831 24.54 -2.3 27.8 61 -8.9 16 -1.878 -0.074
14:52 1001 29.56 831 24.54 -2.2 28 59 -9.2 15.5 -1.743 -0.069
14:53 1001 29.56 831 24.54 -2.4 27.7 62 -8.7 16.3 -1.884 -0.074
14:54 1001 29.56 831 24.54 -2.7 27.2 63 -8.8 16.2 -2.173 -0.086
14:55 1001 29.56 831 24.54 -2.8 27 63 -8.8 16.1 -2.371 -0.093
14:56 1001 29.56 831 24.54 -2.7 27.2 61 -9.1 15.6 -2.286 -0.09
14:57 1001 29.56 831 24.54 -2.5 27.6 61 -9 15.8 -2.071 -0.082
14:58 1001 29.56 831 24.54 -2.4 27.6 62 -8.7 16.4 -1.98 -0.078
14:59 1001 29.56 831 24.54 -2.6 27.2 64 -8.6 16.5 -2.133 -0.084
15:00 1001 29.56 831 24.54 -2.8 26.9 64 -8.6 16.5 -2.302 -0.091
15:01 1001 29.56 831 24.54 -2.9 26.7 65 -8.6 16.5 -2.45 -0.096
15:02 1001 29.56 831 24.54 -3 26.6 63 -9.1 15.7 -2.467 -0.097
15:03 1001 29.56 831 24.54 -2.8 26.9 61 -9.4 15.1 -2.382 -0.094
15:04 1001 29.56 831 24.54 -2.5 27.6 60 -9.3 15.3 -2.11 -0.083
15:05 1001 29.56 831 24.54 -2.3 27.9 61 -8.9 15.9 -1.866 -0.073
15:06 1001 29.56 831 24.54 -2.4 27.7 61 -8.8 16.1 -1.906 -0.075
15:07 1001 29.56 831 24.54 -2.4 27.6 63 -8.5 16.6 -1.991 -0.078
15:08 1001 29.56 831 24.54 -2.6 27.2 64 -8.6 16.5 -2.166 -0.085
15:09 1001 29.56 831 24.54 -2.7 27.1 63 -8.8 16.1 -2.308 -0.091
15:10 1001 29.56 831 24.54 -2.7 27.2 64 -8.6 16.4 -2.296 -0.09
15:11 1001 29.56 831 24.54 -2.6 27.3 61 -9.2 15.4 -2.212 -0.087
15:12 1001 29.56 831 24.54 -2.3 27.8 59 -9.3 15.2 -1.934 -0.076
15:13 1001 29.56 831 24.54 -2.1 28.2 59 -9.1 15.6 -1.736 -0.068
15:14 1002 29.59 831 24.54 -2 28.4 59 -9.1 15.7 -1.594 -0.063
15:15 1002 29.59 831 24.54 -2.1 28.2 63 -8.2 17.2 -1.696 -0.067
15:16 1002 29.59 831 24.54 -2.6 27.4 66 -8.1 17.4 -2.161 -0.085
15:17 1002 29.59 831 24.54 -2.9 26.7 67 -8.1 17.3 -2.523 -0.099
15:18 1002 29.59 831 24.54 -3.1 26.4 68 -8.2 17.2 -2.681 -0.106
15:19 1001 29.56 831 24.54 -3.2 26.3 67 -8.4 17 -2.715 -0.107
15:20 1002 29.59 831 24.54 -3 26.5 67 -8.3 17.1 -2.647 -0.104
15:21 1002 29.59 831 24.54 -3 26.6 68 -8.2 17.3 -2.545 -0.1
15:22 1001 29.56 831 24.54 -3 26.6 68 -8 17.6 -2.505 -0.099
15:23 1001 29.56 831 24.54 -3 26.6 68 -8 17.5 -2.55 -0.1
15:24 1001 29.56 831 24.54 -3 26.6 69 -8 17.6 -2.572 -0.101
15:25 1001 29.56 831 24.54 -3 26.6 70 -7.8 18 -2.566 -0.101
15:26 1001 29.56 831 24.54 -3.1 26.5 70 -7.8 17.9 -2.628 -0.103
15:27 1001 29.56 831 24.54 -3 26.5 69 -8 17.6 -2.639 -0.104
15:28 1001 29.56 831 24.54 -2.9 26.7 68 -8 17.7 -2.537 -0.1
15:29 1001 29.56 831 24.54 -2.9 26.8 69 -7.7 18.1 -2.508 -0.099
15:30 1001 29.56 831 24.54 -2.9 26.9 68 -7.9 17.8 -2.452 -0.097
15:31 1001 29.56 831 24.54 -2.8 27 69 -7.7 18.2 -2.315 -0.091
15:32 1001 29.56 831 24.54 -2.8 27 70 -7.4 18.6 -2.332 -0.092
15:33 1001 29.56 831 24.54 -2.8 26.9 69 -7.7 18.1 -2.326 -0.092
15:34 1001 29.56 831 24.54 -2.7 27.1 70 -7.5 18.6 -2.258 -0.089
15:35 1001 29.56 831 24.54 -2.7 27.1 71 -7.3 18.8 -2.303 -0.091
15:36 1002 29.59 831 24.54 -2.8 26.9 71 -7.3 18.9 -2.331 -0.092
15:37 1001 29.56 831 24.54 -2.8 27 72 -7.2 19.1 -2.341 -0.092
15:38 1001 29.56 831 24.54 -2.8 27 70 -7.5 18.5 -2.302 -0.091
15:39 1001 29.56 831 24.54 -2.7 27.2 70 -7.4 18.6 -2.199 -0.087
15:40 1001 29.56 831 24.54 -2.6 27.3 71 -7.1 19.2 -2.164 -0.085
15:41 1001 29.56 831 24.54 -2.7 27.2 72 -7.1 19.3 -2.181 -0.086
15:42 1001 29.56 831 24.54 -2.8 27 73 -7 19.4 -2.323 -0.091
15:43 1001 29.56 831 24.54 -2.8 26.9 72 -7.3 18.9 -2.368 -0.093
15:44 1001 29.56 831 24.54 -2.8 27 71 -7.3 18.9 -2.317 -0.091
15:45 1001 29.56 831 24.54 -2.8 27 71 -7.2 19 -2.322 -0.091
15:46 1001 29.56 831 24.54 -2.9 26.9 72 -7.2 19 -2.328 -0.092
15:47 1001 29.56 831 24.54 -2.9 26.8 71 -7.3 18.8 -2.367 -0.093
15:48 1001 29.56 831 24.54 -2.9 26.7 72 -7.3 18.9 -2.497 -0.098
15:49 1001 29.56 831 24.54 -3.1 26.5 70 -7.8 18 -2.632 -0.104
15:50 1002 29.59 831 24.54 -3 26.6 71 -7.5 18.5 -2.644 -0.104
15:51 1002 29.59 831 24.54 -3.1 26.5 72 -7.5 18.5 -2.655 -0.105
15:52 1002 29.59 831 24.54 -3.2 26.3 72 -7.5 18.4 -2.728 -0.107
15:53 1002 29.59 831 24.54 -3.2 26.2 71 -7.7 18.2 -2.796 -0.11
15:54 1002 29.59 831 24.54 -3.2 26.3 71 -7.7 18.1 -2.79 -0.11
15:55 1002 29.59 831 24.54 -3.2 26.3 71 -7.7 18.1 -2.761 -0.109
15:56 1002 29.59 831 24.54 -3.1 26.3 71 -7.7 18.1 -2.75 -0.108
15:57 1002 29.59 831 24.54 -3.1 26.4 71 -7.6 18.3 -2.761 -0.109
15:58 1002 29.59 831 24.54 -3.3 26.1 72 -7.6 18.4 -2.869 -0.113
15:59 1002 29.59 831 24.54 -3.3 26 72 -7.7 18.1 -2.92 -0.115
16:00 1002 29.59 831 24.54 -3.3 26.1 72 -7.7 18.1 -2.908 -0.114
16:01 1002 29.59 831 24.54 -3.4 25.8 72 -7.7 18.1 -3.032 -0.119
16:02 1002 29.59 831 24.54 -3.5 25.6 73 -7.7 18.2 -3.123 -0.123
16:03 1002 29.59 831 24.54 -3.6 25.5 74 -7.6 18.3 -3.202 -0.126
16:04 1002 29.59 831 24.54 -3.6 25.5 74 -7.7 18.2 -3.213 -0.126
16:05 1002 29.59 831 24.54 -3.5 25.7 73 -7.7 18.1 -3.089 -0.122
16:06 1002 29.59 831 24.54 -3.3 26 72 -7.7 18.1 -2.947 -0.116
16:07 1002 29.59 831 24.54 -3.2 26.2 71 -7.7 18.1 -2.805 -0.11
16:08 1002 29.59 831 24.54 -3.2 26.2 72 -7.6 18.4 -2.777 -0.109
16:09 1002 29.59 831 24.54 -3.2 26.3 71 -7.7 18.1 -2.703 -0.106
16:10 1002 29.59 831 24.54 -3 26.5 70 -7.8 17.9 -2.562 -0.101
16:11 1002 29.59 831 24.54 -2.8 26.9 69 -7.8 17.9 -2.42 -0.095
16:12 1002 29.59 831 24.54 -2.7 27.2 68 -7.7 18.1 -2.244 -0.088
16:13 1002 29.59 831 24.54 -2.6 27.3 68 -7.7 18.2 -2.103 -0.083
16:14 1002 29.59 831 24.54 -2.6 27.4 68 -7.6 18.3 -2.052 -0.081
16:15 1002 29.59 831 24.54 -2.5 27.5 68 -7.6 18.4 -1.989 -0.078
16:16 1002 29.59 831 24.54 -2.5 27.4 68 -7.6 18.3 -1.995 -0.079
16:17 1002 29.59 831 24.54 -2.5 27.5 69 -7.5 18.5 -1.972 -0.078
16:18 1002 29.59 831 24.54 -2.5 27.5 69 -7.5 18.6 -1.933 -0.076
16:19 1002 29.59 831 24.54 -2.5 27.4 69 -7.4 18.7 -1.927 -0.076
16:20 1002 29.59 831 24.54 -2.6 27.3 69 -7.5 18.6 -1.972 -0.078
16:21 1002 29.59 831 24.54 -2.6 27.4 69 -7.6 18.4 -1.955 -0.077
16:22 1002 29.59 831 24.54 -2.5 27.5 69 -7.4 18.7 -1.927 -0.076
16:23 1002 29.59 831 24.54 -2.5 27.5 69 -7.4 18.7 -1.938 -0.076
16:24 1001 29.56 831 24.54 -2.6 27.4 69 -7.5 18.5 -2.023 -0.08
16:25 1002 29.59 831 24.54 -2.5 27.4 68 -7.6 18.3 -2.046 -0.081
16:26 1001 29.56 831 24.54 -2.6 27.3 68 -7.6 18.2 -2.057 -0.081
16:27 1001 29.56 831 24.54 -2.6 27.4 68 -7.7 18.2 -2.119 -0.083
16:28 1001 29.56 831 24.54 -2.6 27.2 68 -7.7 18.1 -2.153 -0.085
16:29 1001 29.56 831 24.54 -2.7 27.2 68 -7.9 17.8 -2.233 -0.088
16:30 1001 29.56 831 24.54 -2.7 27.1 68 -7.9 17.7 -2.329 -0.092
16:31 1001 29.56 831 24.54 -2.8 27 67 -8.1 17.4 -2.312 -0.091
16:32 1001 29.56 831 24.54 -2.7 27.2 66 -8.1 17.3 -2.295 -0.09
16:33 1001 29.56 831 24.54 -2.6 27.3 66 -8.2 17.2 -2.21 -0.087
16:34 1001 29.56 831 24.54 -2.6 27.3 65 -8.3 17.1 -2.204 -0.087
16:35 1002 29.59 831 24.54 -2.7 27.1 66 -8.2 17.2 -2.317 -0.091
16:36 1002 29.59 831 24.54 -3.1 26.5 68 -8.2 17.2 -2.731 -0.108
16:37 1002 29.59 831 24.54 -3.4 25.9 69 -8.3 17 -3.014 -0.119
16:38 1002 29.59 831 24.54 -3.6 25.6 69 -8.5 16.7 -3.19 -0.126
16:39 1002 29.59 831 24.54 -3.7 25.3 69 -8.6 16.5 -3.371 -0.133
16:40 1002 29.59 831 24.54 -3.8 25.2 69 -8.6 16.4 -3.422 -0.135
16:41 1002 29.59 831 24.54 -3.8 25.1 69 -8.7 16.4 -3.461 -0.136
16:42 1002 29.59 831 24.54 -3.9 25 69 -8.7 16.3 -3.518 -0.139
16:43 1002 29.59 831 24.54 -3.9 25 69 -8.7 16.3 -3.546 -0.14
16:44 1002 29.59 831 24.54 -3.9 24.9 69 -8.8 16.1 -3.558 -0.14
16:45 1002 29.59 831 24.54 -4 24.8 69 -8.9 16 -3.654 -0.144
16:46 1002 29.59 831 24.54 -4.1 24.6 70 -8.8 16.1 -3.762 -0.148
16:47 1002 29.59 831 24.54 -4.2 24.5 69 -9 15.9 -3.794 -0.149
16:48 1002 29.59 831 24.54 -4.3 24.3 70 -9 15.8 -3.885 -0.153
16:49 1002 29.59 831 24.54 -4.3 24.3 70 -8.9 15.9 -3.953 -0.156
16:50 1002 29.59 831 24.54 -4.3 24.3 70 -9 15.8 -3.969 -0.156
16:51 1002 29.59 831 24.54 -4.2 24.4 69 -9.2 15.5 -3.873 -0.152
16:52 1002 29.59 831 24.54 -4.3 24.2 69 -9.2 15.5 -3.986 -0.157
16:53 1002 29.59 831 24.54 -4.4 24.1 69 -9.3 15.3 -3.992 -0.157
16:54 1002 29.59 831 24.54 -4.4 24 70 -9.1 15.7 -4.043 -0.159
16:55 1002 29.59 831 24.54 -4.2 24.4 67 -9.4 15.1 -3.884 -0.153
16:56 1002 29.59 831 24.54 -4.2 24.5 66 -9.6 14.8 -3.878 -0.153
16:57 1002 29.59 831 24.54 -4.4 24.1 69 -9.3 15.2 -4.048 -0.159
16:58 1002 29.59 831 24.54 -4.4 24 69 -9.3 15.3 -4.059 -0.16
16:59 1002 29.59 831 24.54 -4.3 24.2 69 -9.3 15.3 -3.979 -0.157
17:00 1002 29.59 831 24.54 -4.3 24.2 68 -9.4 15 -3.951 -0.156
17:01 1002 29.59 831 24.54 -4.3 24.2 68 -9.4 15.1 -3.951 -0.156
17:02 1002 29.59 831 24.54 -4.2 24.4 67 -9.5 14.9 -3.905 -0.154
17:03 1002 29.59 831 24.54 -4.3 24.2 67 -9.5 14.9 -4.097 -0.161
17:04 1002 29.59 831 24.54 -4.5 23.9 67 -9.7 14.6 -4.222 -0.166
17:05 1002 29.59 831 24.54 -4.5 24 67 -9.7 14.6 -4.199 -0.165
17:06 1002 29.59 831 24.54 -4.5 23.9 67 -9.8 14.4 -4.261 -0.168
17:07 1002 29.59 831 24.54 -4.4 24 68 -9.5 14.9 -4.227 -0.166
17:08 1002 29.59 831 24.54 -4.3 24.3 66 -9.7 14.6 -4.141 -0.163
17:09 1002 29.59 831 24.54 -4.3 24.2 67 -9.6 14.7 -4.09 -0.161
17:10 1002 29.59 831 24.54 -4.3 24.3 66 -9.7 14.5 -4.089 -0.161
17:11 1002 29.59 831 24.54 -4.4 24.2 66 -9.7 14.5 -4.1 -0.161
17:12 1002 29.59 831 24.54 -4.5 24 66 -9.8 14.3 -4.19 -0.165
17:13 1002 29.59 831 24.54 -4.7 23.6 66 -10 14 -4.439 -0.175
17:14 1002 29.59 831 24.54 -5 22.9 69 -9.8 14.3 -4.784 -0.188
17:15 1002 29.59 831 24.54 -5 23 69 -9.9 14.1 -4.671 -0.184
17:16 1002 29.59 831 24.54 -4.9 23.3 66 -10.2 13.7 -4.608 -0.181
17:17 1002 29.59 831 24.54 -5 23 68 -10.1 13.9 -4.727 -0.186
17:18 1002 29.59 831 24.54 -5 22.9 69 -9.9 14.1 -4.687 -0.185
17:19 1001 29.56 831 24.54 -4.9 23.2 69 -9.8 14.4 -4.562 -0.18
17:20 1001 29.56 831 24.54 -4.7 23.5 68 -9.8 14.4 -4.466 -0.176
17:21 1001 29.56 831 24.54 -4.7 23.6 67 -9.8 14.3 -4.398 -0.173
17:22 1001 29.56 831 24.54 -4.8 23.4 65 -10.3 13.5 -4.618 -0.182
17:23 1001 29.56 831 24.54 -5.2 22.6 67 -10.5 13.1 -5.02 -0.198
17:24 1001 29.56 831 24.54 -5.7 21.8 71 -10.1 13.8 -5.343 -0.21
17:25 1001 29.56 831 24.54 -5.8 21.6 73 -9.9 14.1 -5.36 -0.211
17:26 1001 29.56 831 24.54 -5.6 22 72 -9.8 14.4 -5.201 -0.205
17:27 1001 29.56 831 24.54 -5.3 22.4 71 -9.8 14.3 -5.11 -0.201
17:28 1001 29.56 831 24.54 -5.4 22.3 68 -10.3 13.4 -5.127 -0.202
17:29 1001 29.56 831 24.54 -5.5 22.2 69 -10.3 13.5 -5.189 -0.204
17:30 1001 29.56 831 24.54 -5.5 22.2 70 -10 13.9 -5.144 -0.203
17:31 1001 29.56 831 24.54 -5.3 22.5 70 -10 14 -5.002 -0.197
17:32 1001 29.56 831 24.54 -5.2 22.6 69 -10.1 13.8 -4.968 -0.196
17:33 1001 29.56 831 24.54 -5.2 22.6 69 -10.1 13.8 -4.98 -0.196
17:34 1001 29.56 831 24.54 -5.3 22.4 68 -10.4 13.4 -5.047 -0.199
17:35 1001 29.56 831 24.54 -5.6 22 67 -10.8 12.6 -5.217 -0.205
17:36 1001 29.56 831 24.54 -5.8 21.6 72 -10.1 13.9 -5.404 -0.213
17:37 1001 29.56 831 24.54 -5.5 22.1 72 -9.9 14.2 -5.194 -0.204
17:38 1001 29.56 831 24.54 -5 23 66 -10.4 13.3 -4.821 -0.19
17:39 1001 29.56 831 24.54 -5 23 69 -9.8 14.3 -4.849 -0.191
17:40 1001 29.56 831 24.54 -4.9 23.2 67 -10.1 13.9 -4.713 -0.186
17:41 1001 29.56 831 24.54 -4.9 23.2 67 -10 13.9 -4.633 -0.182
17:42 1001 29.56 831 24.54 -5 23.1 68 -10 14 -4.69 -0.185
17:43 1001 29.56 831 24.54 -5 23 67 -10.2 13.6 -4.751 -0.187
17:44 1001 29.56 831 24.54 -5.2 22.7 69 -10 14 -4.864 -0.191
17:45 1001 29.56 831 24.54 -5.2 22.7 69 -10 14 -4.887 -0.192
17:46 1001 29.56 831 24.54 -5.3 22.5 67 -10.5 13.1 -4.948 -0.195
17:47 1001 29.56 831 24.54 -5.7 21.8 68 -10.7 12.7 -5.215 -0.205
17:48 1001 29.56 831 24.54 -6 21.2 68 -10.9 12.3 -5.537 -0.218
17:49 1001 29.56 831 24.54 -6.5 20.4 70 -11.1 12.1 -6.013 -0.237
17:50 1001 29.56 831 24.54 -6.6 20.1 73 -10.6 12.9 -6.154 -0.242
17:51 1001 29.56 831 24.54 -6.2 20.8 73 -10.3 13.5 -5.871 -0.231
17:52 1001 29.56 831 24.54 -5.7 21.7 72 -10.1 13.9 -5.496 -0.216
17:53 1001 29.56 831 24.54 -5.2 22.7 69 -10 14.1 -5.004 -0.197
17:54 1001 29.56 831 24.54 -4.5 23.8 66 -10 14 -4.38 -0.172
17:55 1001 29.56 831 24.54 -4.1 24.6 64 -10 14 -3.932 -0.155
17:56 1001 29.56 831 24.54 -3.9 25 59 -10.7 12.7 -3.74 -0.147
17:57 1001 29.56 831 24.54 -4.3 24.2 61 -10.7 12.8 -4.045 -0.159
17:58 1001 29.56 831 24.54 -5.1 22.8 65 -10.8 12.6 -4.814 -0.19
17:59 1001 29.56 831 24.54 -5.5 22 69 -10.4 13.3 -5.2 -0.205
18:00 1001 29.56 831 24.54 -5.2 22.6 69 -10 14 -4.955 -0.195
18:01 1001 29.56 831 24.54 -4.5 23.8 66 -9.9 14.1 -4.337 -0.171
18:02 1001 29.56 831 24.54 -4.1 24.6 63 -10.1 13.8 -3.878 -0.153
18:03 1001 29.56 831 24.54 -3.9 25 63 -10 13.9 -3.696 -0.146
18:04 1001 29.56 831 24.54 -3.8 25.1 62 -10 13.9 -3.667 -0.144
18:05 1001 29.56 831 24.54 -4 24.7 63 -10.1 13.8 -3.815 -0.15
18:06 1001 29.56 831 24.54 -4.2 24.4 64 -10 14 -4.035 -0.159
18:07 1002 29.59 831 24.54 -4.4 24.1 65 -10 14 -4.143 -0.163
18:08 1002 29.59 831 24.54 -4.2 24.4 64 -10.1 13.8 -3.922 -0.154
18:09 1002 29.59 831 24.54 -4.1 24.6 62 -10.4 13.2 -3.847 -0.151
18:10 1001 29.56 831 24.54 -4.3 24.4 63 -10.3 13.4 -3.904 -0.154
18:11 1001 29.56 831 24.54 -4.2 24.4 62 -10.4 13.2 -3.864 -0.152
18:12 1001 29.56 831 24.54 -4.3 24.3 61 -10.7 12.7 -3.909 -0.154
18:13 1001 29.56 831 24.54 -4.5 23.8 64 -10.3 13.5 -4.09 -0.161
18:14 1001 29.56 831 24.54 -4.6 23.8 63 -10.5 13.1 -4.147 -0.163
18:15 1001 29.56 831 24.54 -4.5 23.8 64 -10.3 13.4 -4.13 -0.163
18:16 1001 29.56 831 24.54 -4.5 23.9 64 -10.3 13.5 -4.141 -0.163
18:17 1002 29.59 831 24.54 -4.4 24.1 63 -10.3 13.4 -4.062 -0.16
18:18 1002 29.59 831 24.54 -4.5 24 64 -10.3 13.5 -4.107 -0.162
18:19 1002 29.59 831 24.54 -4.5 23.9 65 -10.1 13.8 -4.141 -0.163
18:20 1002 29.59 831 24.54 -4.4 24 66 -9.9 14.2 -4.039 -0.159
18:21 1002 29.59 831 24.54 -4.1 24.6 65 -9.7 14.5 -3.761 -0.148
18:22 1002 29.59 831 24.54 -3.8 25.2 64 -9.7 14.6 -3.494 -0.138
18:23 1002 29.59 831 24.54 -3.6 25.4 63 -9.7 14.5 -3.398 -0.134
18:24 1002 29.59 831 24.54 -3.7 25.3 60 -10.3 13.4 -3.432 -0.135
18:25 1002 29.59 831 24.54 -4.2 24.4 63 -10.3 13.5 -3.874 -0.153
18:26 1002 29.59 831 24.54 -4.3 24.3 64 -10.1 13.9 -3.925 -0.155
18:27 1002 29.59 831 24.54 -4.2 24.5 60 -10.9 12.5 -3.947 -0.155
18:28 1002 29.59 831 24.54 -4.5 23.8 62 -10.8 12.6 -4.276 -0.168
18:29 1002 29.59 831 24.54 -4.6 23.6 65 -10.3 13.5 -4.378 -0.172
18:30 1002 29.59 831 24.54 -4.5 24 64 -10.2 13.6 -4.242 -0.167
18:31 1002 29.59 831 24.54 -4.3 24.2 64 -10.2 13.6 -4.043 -0.159
18:32 1002 29.59 831 24.54 -4.3 24.3 62 -10.6 13 -4.004 -0.158
18:33 1002 29.59 831 24.54 -4.6 23.6 62 -11 12.3 -4.298 -0.169
18:34 1002 29.59 831 24.54 -5.1 22.9 65 -10.8 12.6 -4.65 -0.183
18:35 1002 29.59 831 24.54 -5.4 22.3 62 -11.5 11.2 -4.91 -0.193
18:36 1002 29.59 831 24.54 -5.8 21.5 64 -11.6 11.1 -5.352 -0.211
18:37 1002 29.59 831 24.54 -6.2 20.9 68 -11.1 11.9 -5.681 -0.224
18:38 1001 29.56 831 24.54 -6.2 20.9 69 -11 12.1 -5.772 -0.227
18:39 1001 29.56 831 24.54 -6.1 21.1 73 -10.2 13.6 -5.658 -0.223
18:40 1001 29.56 831 24.54 -5.5 22.1 68 -10.4 13.2 -5.097 -0.201
18:41 1001 29.56 831 24.54 -5.2 22.7 66 -10.5 13.1 -4.865 -0.192
18:42 1001 29.56 830 24.51 -4.9 23.3 66 -10.3 13.5 -4.553 -0.179
18:43 1001 29.56 830 24.51 -3.9 25 63 -10 14 -3.612 -0.142
18:44 1001 29.56 830 24.51 -3.2 26.3 61 -9.7 14.6 -3 -0.118
18:45 1001 29.56 830 24.51 -2.7 27.1 61 -9.3 15.2 -2.438 -0.096
18:46 1001 29.56 830 24.51 -2 28.5 57 -9.5 15 -1.735 -0.068
18:47 1001 29.56 831 24.54 -1.8 28.7 52 -10.5 13.1 -1.582 -0.062
18:48 1001 29.56 831 24.54 -2.7 27.1 55 -10.6 13 -2.41 -0.095
18:49 1001 29.56 831 24.54 -3.5 25.8 58 -10.7 12.8 -3.101 -0.122
18:50 1001 29.56 831 24.54 -3.5 25.7 61 -9.9 14.2 -3.186 -0.125
18:51 1001 29.56 831 24.54 -3.3 26.1 59 -10.1 13.8 -2.93 -0.115
18:52 1001 29.56 831 24.54 -3.1 26.4 59 -10 14 -2.857 -0.112
18:53 1001 29.56 831 24.54 -3.2 26.2 60 -10 14.1 -2.907 -0.114
18:54 1001 29.56 831 24.54 -3.4 25.9 60 -10.1 13.7 -3.031 -0.119
18:55 1001 29.56 831 24.54 -3.7 25.4 61 -10.1 13.7 -3.207 -0.126
18:56 1001 29.56 831 24.54 -3.9 25 63 -10 14 -3.416 -0.134
18:57 1001 29.56 831 24.54 -3.8 25.1 62 -10.1 13.8 -3.45 -0.136
18:58 1001 29.56 831 24.54 -4 24.7 61 -10.4 13.2 -3.66 -0.144
18:59 1001 29.56 831 24.54 -4.3 24.2 64 -10.1 13.7 -3.948 -0.155
19:00 1001 29.56 831 24.54 -4.2 24.5 64 -10 14 -3.829 -0.151
19:01 1001 29.56 831 24.54 -3.9 25 62 -10.1 13.8 -3.614 -0.142
19:02 1001 29.56 831 24.54 -3.9 25.1 61 -10.2 13.6 -3.613 -0.142
19:03 1001 29.56 831 24.54 -4.2 24.4 62 -10.4 13.3 -3.948 -0.155
19:04 1001 29.56 831 24.54 -4.5 23.9 64 -10.4 13.3 -4.192 -0.165
19:05 1001 29.56 831 24.54 -4.8 23.4 64 -10.5 13.1 -4.412 -0.174
19:06 1001 29.56 830 24.51 -5 23 66 -10.4 13.2 -4.622 -0.182
19:07 1001 29.56 830 24.51 -5.1 22.9 65 -10.6 12.8 -4.673 -0.184
19:08 1001 29.56 830 24.51 -5.3 22.4 66 -10.8 12.6 -4.939 -0.194
19:09 1001 29.56 830 24.51 -5.5 22.1 68 -10.5 13.1 -5.092 -0.2
19:10 1001 29.56 830 24.51 -5.5 22.1 68 -10.5 13.1 -5.098 -0.201
19:11 1001 29.56 830 24.51 -5.5 22.1 67 -10.7 12.8 -5.098 -0.201
19:12 1001 29.56 830 24.51 -5.6 22 68 -10.6 12.9 -5.103 -0.201
19:13 1001 29.56 830 24.51 -5.5 22.1 69 -10.3 13.5 -5.12 -0.202
19:14 1001 29.56 830 24.51 -5.5 22.1 64 -11.2 11.8 -5.137 -0.202
19:15 1001 29.56 830 24.51 -6 21.2 68 -10.9 12.4 -5.675 -0.223
19:16 1001 29.56 830 24.51 -6.2 20.9 70 -10.7 12.7 -5.8 -0.228
19:17 1001 29.56 830 24.51 -6.1 20.9 68 -11.2 11.8 -5.834 -0.23
19:18 1001 29.56 830 24.51 -6.4 20.5 69 -11.1 12 -6.089 -0.24
19:19 1001 29.56 830 24.51 -6.5 20.2 68 -11.6 11.2 -6.231 -0.245
19:20 1001 29.56 830 24.51 -6.9 19.6 70 -11.5 11.2 -6.616 -0.26
19:21 1001 29.56 830 24.51 -7 19.5 76 -10.6 13 -6.571 -0.259
19:22 1001 29.56 830 24.51 -6.4 20.6 73 -10.5 13.1 -6.066 -0.239
19:23 1001 29.56 830 24.51 -5.7 21.7 72 -10 14 -5.522 -0.217
19:24 1001 29.56 830 24.51 -5.2 22.7 68 -10.1 13.8 -5.001 -0.197
19:25 1001 29.56 830 24.51 -4.9 23.2 66 -10.4 13.3 -4.74 -0.187
19:26 1001 29.56 830 24.51 -5.2 22.6 63 -11.2 11.8 -5.046 -0.199
19:27 1001 29.56 830 24.51 -6 21.2 67 -11.1 12 -5.749 -0.226
19:28 1001 29.56 830 24.51 -6.2 20.9 70 -10.7 12.7 -5.913 -0.233
19:29 1001 29.56 831 24.54 -6.2 20.9 70 -10.9 12.4 -5.907 -0.233
19:30 1001 29.56 831 24.54 -6.3 20.7 69 -11 12.1 -5.953 -0.234
19:31 1001 29.56 831 24.54 -6.7 19.9 67 -11.9 10.6 -6.446 -0.254
19:32 1001 29.56 831 24.54 -7.2 19.1 72 -11.4 11.4 -6.792 -0.267
19:33 1001 29.56 831 24.54 -7.3 18.9 72 -11.4 11.4 -6.905 -0.272
19:34 1001 29.56 831 24.54 -7.4 18.7 73 -11.5 11.3 -7.02 -0.276
19:35 1001 29.56 831 24.54 -7.6 18.4 72 -11.8 10.7 -7.23 -0.285
19:36 1001 29.56 831 24.54 -7.8 17.9 76 -11.4 11.5 -7.47 -0.294
19:37 1001 29.56 831 24.54 -7.5 18.6 73 -11.5 11.4 -7.13 -0.281
19:38 1001 29.56 831 24.54 -7.6 18.3 71 -12 10.3 -7.39 -0.291
19:39 1001 29.56 831 24.54 -8.1 17.4 71 -12.5 9.5 -7.86 -0.309
19:40 1001 29.56 831 24.54 -8.5 16.6 76 -12 10.4 -8.21 -0.323
19:41 1001 29.56 831 24.54 -8.3 17 78 -11.5 11.2 -8.03 -0.316
19:42 1001 29.56 831 24.54 -7.8 17.9 77 -11.2 11.9 -7.58 -0.298
19:43 1001 29.56 831 24.54 -7.3 19 75 -11 12.2 -7.04 -0.277
19:44 1001 29.56 831 24.54 -6.7 19.9 73 -10.8 12.6 -6.523 -0.257
19:45 1001 29.56 831 24.54 -6.4 20.4 67 -11.5 11.2 -6.257 -0.246
19:46 1001 29.56 831 24.54 -6.5 20.4 69 -11.2 11.9 -6.279 -0.247
19:47 1001 29.56 831 24.54 -6.6 20.1 69 -11.4 11.5 -6.42 -0.253
19:48 1001 29.56 831 24.54 -6.8 19.8 71 -11.2 11.9 -6.54 -0.257
19:49 1001 29.56 831 24.54 -6.7 20 74 -10.6 13 -6.392 -0.252
19:50 1001 29.56 831 24.54 -6.1 20.9 69 -11 12.3 -5.955 -0.234
19:51 1001 29.56 831 24.54 -6.1 21 66 -11.4 11.4 -5.91 -0.233
19:52 1001 29.56 831 24.54 -6.7 19.9 68 -11.6 11.1 -6.499 -0.256
19:53 1001 29.56 830 24.51 -7.2 19.1 70 -11.8 10.8 -6.85 -0.27
19:54 1001 29.56 830 24.51 -7.3 19 74 -11.1 12.1 -6.941 -0.273
19:55 1001 29.56 830 24.51 -6.9 19.6 75 -10.6 13 -6.538 -0.257
19:56 1001 29.56 830 24.51 -6.4 20.4 71 -10.8 12.5 -6.141 -0.242
19:57 1001 29.56 830 24.51 -6.2 20.8 72 -10.6 12.9 -5.948 -0.234
19:58 1001 29.56 830 24.51 -6.1 21.1 67 -11.2 11.9 -5.801 -0.228
19:59 1001 29.56 830 24.51 -6.4 20.5 68 -11.4 11.5 -6.141 -0.242
20:00 1001 29.56 830 24.51 -6.9 19.7 70 -11.4 11.4 -6.577 -0.259
20:01 1001 29.56 830 24.51 -7.1 19.3 74 -11 12.2 -6.787 -0.267
20:02 1001 29.56 830 24.51 -6.8 19.8 74 -10.7 12.7 -6.498 -0.256
20:03 1001 29.56 830 24.51 -6.5 20.3 67 -11.6 11.1 -6.305 -0.248
20:04 1001 29.56 830 24.51 -7 19.5 68 -11.9 10.6 -6.741 -0.265
20:05 1001 29.56 830 24.51 -7.4 18.7 70 -12 10.5 -7.17 -0.282
20:06 1001 29.56 830 24.51 -7.8 17.9 69 -12.5 9.5 -7.52 -0.296
20:07 1001 29.56 830 24.51 -8.3 17.1 71 -12.7 9.2 -7.97 -0.314
20:08 1001 29.56 830 24.51 -8.6 16.5 78 -11.8 10.7 -8.25 -0.325
20:09 1001 29.56 830 24.51 -8.2 17.3 75 -11.8 10.7 -7.78 -0.306
20:10 1001 29.56 830 24.51 -7.7 18.1 78 -10.9 12.4 -7.43 -0.293
20:11 1001 29.56 830 24.51 -6.8 19.7 70 -11.4 11.5 -6.577 -0.259
20:12 1001 29.56 830 24.51 -6.7 19.9 67 -11.9 10.6 -6.525 -0.257
20:13 1001 29.56 830 24.51 -7.1 19.2 72 -11.4 11.6 -6.922 -0.273
20:14 1001 29.56 830 24.51 -7.2 19.1 71 -11.6 11.1 -6.985 -0.275
20:15 1001 29.56 830 24.51 -7.4 18.8 68 -12.2 10 -7.09 -0.279
20:16 1001 29.56 830 24.51 -7.8 17.9 70 -12.4 9.6 -7.58 -0.298
20:17 1001 29.56 830 24.51 -8.4 17 72 -12.5 9.5 -8.05 -0.317
20:18 1001 29.56 830 24.51 -8.5 16.7 76 -12.1 10.3 -8.16 -0.321
20:19 1001 29.56 830 24.51 -8.3 17.1 79 -11.4 11.5 -7.97 -0.314
20:20 1001 29.56 830 24.51 -7.5 18.5 80 -10.4 13.3 -7.22 -0.284
20:21 1001 29.56 830 24.51 -6.5 20.3 70 -11.1 12 -6.457 -0.254
20:22 1001 29.56 830 24.51 -6.1 20.9 73 -10.2 13.6 -6.213 -0.245
20:23 1001 29.56 830 24.51 -5.6 22 63 -11.5 11.3 -5.624 -0.221
20:24 1001 29.56 830 24.51 -5.7 21.8 65 -11.1 11.9 -5.675 -0.223
20:25 1001 29.56 830 24.51 -5.8 21.5 69 -10.7 12.8 -5.8 -0.228
20:26 1001 29.56 830 24.51 -5.9 21.4 68 -10.9 12.4 -5.748 -0.226
20:27 1001 29.56 830 24.51 -5.9 21.3 66 -11.2 11.8 -5.788 -0.228
20:28 1001 29.56 830 24.51 -5.9 21.3 69 -10.7 12.8 -5.737 -0.226
20:29 1001 29.56 830 24.51 -5.9 21.5 66 -11.3 11.7 -5.612 -0.221
20:30 1001 29.56 830 24.51 -6.3 20.6 63 -12.3 9.9 -6.059 -0.239
20:31 1001 29.56 831 24.54 -7 19.3 69 -11.7 10.9 -6.739 -0.265
20:32 1001 29.56 831 24.54 -7.3 18.8 69 -12.2 10.1 -6.994 -0.275
20:33 1001 29.56 831 24.54 -7.7 18.1 69 -12.4 9.6 -7.34 -0.289
20:34 1001 29.56 831 24.54 -8.1 17.5 70 -12.7 9.1 -7.71 -0.304
20:35 1001 29.56 831 24.54 -8 17.6 76 -11.5 11.2 -7.61 -0.3
20:36 1001 29.56 831 24.54 -7.9 17.7 69 -12.6 9.3 -7.58 -0.298
20:37 1001 29.56 831 24.54 -7.9 17.8 73 -11.9 10.5 -7.59 -0.299
20:38 1001 29.56 831 24.54 -7.4 18.6 70 -12 10.4 -7.21 -0.284
20:39 1001 29.56 831 24.54 -6.9 19.5 73 -11 12.3 -6.709 -0.264
20:40 1001 29.56 831 24.54 -6.4 20.4 67 -11.6 11.1 -6.194 -0.244
20:41 1001 29.56 831 24.54 -6.8 19.8 71 -11.2 11.8 -6.5 -0.256
20:42 1001 29.56 831 24.54 -6.5 20.3 72 -10.7 12.7 -6.193 -0.244
20:43 1001 29.56 831 24.54 -6 21.3 71 -10.4 13.3 -5.728 -0.226
20:44 1001 29.56 831 24.54 -5.5 22.2 66 -10.8 12.6 -5.269 -0.207
20:45 1001 29.56 831 24.54 -5.3 22.4 63 -11.3 11.7 -5.172 -0.204
20:46 1001 29.56 831 24.54 -5.5 22.1 64 -11.2 11.8 -5.359 -0.211
20:47 1001 29.56 831 24.54 -6.1 21.1 63 -12 10.4 -5.869 -0.231
20:48 1001 29.56 831 24.54 -6.6 20.1 70 -11.3 11.7 -6.441 -0.254
20:49 1001 29.56 831 24.54 -6.7 19.9 70 -11.4 11.5 -6.595 -0.26
20:50 1001 29.56 831 24.54 -7 19.4 64 -12.8 9 -6.872 -0.271
20:51 1001 29.56 831 24.54 -7.4 18.8 71 -11.8 10.8 -7.17 -0.282
20:52 1001 29.56 831 24.54 -7.2 19 65 -12.7 9.1 -7.1 -0.28
20:53 1001 29.56 831 24.54 -7.8 18.1 69 -12.4 9.7 -7.6 -0.299
20:54 1001 29.56 831 24.54 -7.8 17.9 74 -11.7 10.9 -7.59 -0.299
20:55 1001 29.56 831 24.54 -7.4 18.7 74 -11.3 11.7 -7.21 -0.284
20:56 1001 29.56 831 24.54 -6.9 19.7 73 -10.8 12.5 -6.719 -0.265
20:57 1001 29.56 831 24.54 -6.2 20.8 68 -11.3 11.7 -6.066 -0.239
20:58 1001 29.56 831 24.54 -6 21.3 68 -10.9 12.3 -5.862 -0.231
20:59 1001 29.56 831 24.54 -5.7 21.7 67 -10.9 12.4 -5.596 -0.22
21:00 1001 29.56 831 24.54 -5.6 22 67 -10.8 12.5 -5.482 -0.216
21:01 1001 29.56 831 24.54 -5.7 21.7 67 -11 12.2 -5.63 -0.222
21:02 1001 29.56 831 24.54 -6 21.2 68 -11 12.2 -5.777 -0.227
21:03 1001 29.56 831 24.54 -6.2 20.9 62 -12.3 9.8 -6.015 -0.237
21:04 1001 29.56 831 24.54 -6.6 20.2 65 -12.2 10.1 -6.287 -0.248
21:05 1001 29.56 831 24.54 -6.6 20 68 -11.7 11 -6.372 -0.251
21:06 1001 29.56 831 24.54 -6.7 20 66 -12 10.4 -6.418 -0.253
21:07 1001 29.56 831 24.54 -6.7 20 71 -11 12.1 -6.435 -0.253
21:08 1001 29.56 831 24.54 -6.2 20.8 68 -11.1 12 -6.037 -0.238
21:09 1001 29.56 831 24.54 -6 21.1 64 -11.7 10.9 -5.917 -0.233
21:10 1001 29.56 831 24.54 -6.2 20.9 67 -11.4 11.5 -6.071 -0.239
21:11 1001 29.56 831 24.54 -6.2 20.8 68 -11.2 11.9 -6.07 -0.239
21:12 1001 29.56 831 24.54 -6.3 20.7 65 -11.9 10.6 -6.115 -0.241
21:13 1001 29.56 831 24.54 -6.5 20.2 68 -11.5 11.3 -6.347 -0.25
21:14 1001 29.56 831 24.54 -6.5 20.2 71 -11 12.2 -6.245 -0.246
21:15 1001 29.56 831 24.54 -6.5 20.2 67 -11.6 11.1 -6.313 -0.249
21:16 1001 29.56 831 24.54 -6.4 20.5 71 -10.8 12.6 -6.131 -0.241
21:17 1001 29.56 831 24.54 -5.8 21.6 68 -10.8 12.6 -5.535 -0.218
21:18 1001 29.56 831 24.54 -5.5 22.1 65 -11.1 12.1 -5.252 -0.207
21:19 1001 29.56 831 24.54 -5.5 22.1 64 -11.3 11.7 -5.308 -0.209
21:20 1001 29.56 831 24.54 -5.6 21.8 68 -10.7 12.7 -5.393 -0.212
21:21 1001 29.56 831 24.54 -5.5 22.1 65 -11.1 12.1 -5.274 -0.208
21:22 1001 29.56 831 24.54 -5.9 21.3 62 -12.1 10.2 -5.784 -0.228
21:23 1001 29.56 831 24.54 -6.7 19.9 68 -11.8 10.8 -6.498 -0.256
21:24 1001 29.56 831 24.54 -6.5 20.3 74 -10.4 13.3 -6.215 -0.245
21:25 1001 29.56 831 24.54 -5.6 21.9 69 -10.4 13.3 -5.307 -0.209
21:26 1001 29.56 831 24.54 -4.9 23.2 67 -10.2 13.7 -4.689 -0.185
21:27 1001 29.56 831 24.54 -4.3 24.3 65 -10 14.1 -4.156 -0.164
21:28 1001 29.56 831 24.54 -3.9 25.1 63 -10 14 -3.787 -0.149
21:29 1001 29.56 831 24.54 -3.7 25.4 60 -10.2 13.6 -3.657 -0.144
21:30 1001 29.56 831 24.54 -3.8 25.2 62 -10.1 13.9 -3.759 -0.148
21:31 1001 29.56 831 24.54 -4.1 24.6 61 -10.6 12.9 -4.19 -0.165
21:32 1001 29.56 831 24.54 -4.6 23.8 67 -9.7 14.5 -4.405 -0.173
21:33 1001 29.56 831 24.54 -4.5 23.9 66 -10 13.9 -4.127 -0.162
21:34 1001 29.56 831 24.54 -4.3 24.2 64 -10.1 13.9 -3.957 -0.156
21:35 1001 29.56 831 24.54 -4.3 24.2 65 -9.9 14.2 -4.076 -0.16
21:36 1001 29.56 831 24.54 -4.3 24.3 64 -10 13.9 -3.996 -0.157
21:37 1001 29.56 831 24.54 -4.2 24.4 64 -10.1 13.8 -3.957 -0.156
21:38 1001 29.56 831 24.54 -4.2 24.4 64 -10.1 13.8 -3.945 -0.155
21:39 1001 29.56 831 24.54 -4.3 24.3 63 -10.3 13.5 -4.036 -0.159
21:40 1001 29.56 831 24.54 -4.5 24 59 -11.3 11.6 -4.178 -0.164
21:41 1001 29.56 831 24.54 -5 23 65 -10.5 13 -4.688 -0.185
21:42 1001 29.56 831 24.54 -5.1 22.7 66 -10.5 13.1 -4.801 -0.189
21:43 1001 29.56 831 24.54 -5.2 22.6 66 -10.7 12.7 -4.903 -0.193
21:44 1001 29.56 831 24.54 -5.2 22.6 68 -10.3 13.4 -4.886 -0.192
21:45 1001 29.56 831 24.54 -5.1 22.9 66 -10.5 13.1 -4.739 -0.187
21:46 1001 29.56 831 24.54 -5.1 22.9 64 -11 12.3 -4.784 -0.188
21:47 1001 29.56 831 24.54 -5.6 21.9 67 -10.9 12.4 -5.283 -0.208
21:48 1001 29.56 831 24.54 -5.8 21.6 69 -10.7 12.8 -5.317 -0.209
21:49 1001 29.56 831 24.54 -6 21.2 59 -12.7 9.2 -5.64 -0.222
21:50 1001 29.56 831 24.54 -7 19.3 65 -12.6 9.3 -6.673 -0.263
21:51 1001 29.56 831 24.54 -7.7 18.1 71 -12.2 10.1 -7.42 -0.292
21:52 1001 29.56 831 24.54 -8 17.6 73 -12.1 10.3 -7.63 -0.3
21:53 1001 29.56 831 24.54 -8 17.6 74 -11.8 10.7 -7.65 -0.301
21:54 1001 29.56 831 24.54 -7.8 17.9 76 -11.3 11.6 -7.49 -0.295
21:55 1001 29.56 831 24.54 -7.4 18.7 77 -10.7 12.7 -7.11 -0.28
21:56 1001 29.56 830 24.51 -7 19.5 74 -10.9 12.4 -6.729 -0.265
21:57 1001 29.56 831 24.54 -6.8 19.8 70 -11.3 11.7 -6.57 -0.259
21:58 1001 29.56 830 24.51 -7 19.5 69 -11.7 11 -6.735 -0.265
21:59 1001 29.56 831 24.54 -7.1 19.3 74 -10.9 12.4 -6.814 -0.268
22:00 1001 29.56 830 24.51 -6.9 19.6 74 -10.8 12.5 -6.661 -0.262
22:01 1001 29.56 830 24.51 -6.7 19.9 72 -11 12.3 -6.536 -0.257
22:02 1001 29.56 830 24.51 -6.8 19.8 71 -11.3 11.7 -6.599 -0.26
22:03 1001 29.56 830 24.51 -7 19.4 69 -11.8 10.8 -6.786 -0.267
22:04 1001 29.56 830 24.51 -7.1 19.2 73 -11.1 12 -6.848 -0.27
22:05 1001 29.56 830 24.51 -7.1 19.3 68 -11.9 10.5 -6.814 -0.268
22:06 1001 29.56 830 24.51 -7.5 18.5 66 -12.8 9 -7.22 -0.284
22:07 1001 29.56 830 24.51 -8.1 17.5 72 -12.4 9.8 -7.65 -0.301
22:08 1001 29.56 830 24.51 -8 17.6 77 -11.4 11.5 -7.59 -0.299
22:09 1001 29.56 830 24.51 -7.8 18.1 70 -12.3 9.8 -7.47 -0.294
22:10 1001 29.56 830 24.51 -8.1 17.3 68 -13 8.6 -7.88 -0.31
22:11 1001 29.56 830 24.51 -8.5 16.8 77 -11.7 10.9 -8.12 -0.32
22:12 1001 29.56 830 24.51 -8.1 17.4 75 -11.7 10.9 -7.78 -0.306
22:13 1001 29.56 830 24.51 -7.8 18 72 -11.9 10.5 -7.53 -0.296
22:14 1001 29.56 830 24.51 -7.8 18 73 -11.8 10.8 -7.6 -0.299
22:15 1001 29.56 830 24.51 -7.9 17.9 70 -12.5 9.5 -7.64 -0.301
22:16 1001 29.56 830 24.51 -7.8 18 77 -11.1 12 -7.56 -0.298
22:17 1001 29.56 830 24.51 -7.2 19.1 70 -11.8 10.8 -7.01 -0.276
22:18 1001 29.56 830 24.51 -7.1 19.3 70 -11.6 11.2 -6.928 -0.273
22:19 1001 29.56 830 24.51 -7 19.4 73 -11.1 12.1 -6.82 -0.269
22:20 1001 29.56 830 24.51 -6.7 20 70 -11.2 11.8 -6.457 -0.254
22:21 1001 29.56 830 24.51 -6.5 20.3 66 -11.8 10.8 -6.36 -0.25
22:22 1001 29.56 830 24.51 -6.9 19.6 62 -13 8.7 -6.689 -0.263
22:23 1001 29.56 830 24.51 -7.7 18.2 72 -11.8 10.8 -7.32 -0.288
22:24 1001 29.56 830 24.51 -7.7 18.2 71 -12 10.4 -7.24 -0.285
22:25 1001 29.56 830 24.51 -7.5 18.5 68 -12.4 9.7 -7.14 -0.281
22:26 1001 29.56 830 24.51 -7.8 18 70 -12.4 9.7 -7.39 -0.291
22:27 1001 29.56 830 24.51 -8 17.7 73 -11.9 10.5 -7.52 -0.296
22:28 1001 29.56 830 24.51 -7.8 18 75 -11.5 11.3 -7.42 -0.292
22:29 1001 29.56 830 24.51 -7.7 18.1 69 -12.4 9.7 -7.4 -0.291
22:30 1001 29.56 830 24.51 -7.8 17.9 74 -11.6 11.1 -7.47 -0.294
22:31 1001 29.56 830 24.51 -7.5 18.5 73 -11.5 11.3 -7.21 -0.284
22:32 1001 29.56 830 24.51 -7.3 18.9 72 -11.4 11.5 -6.962 -0.274
22:33 1001 29.56 830 24.51 -7.2 19.1 64 -12.8 8.9 -6.916 -0.272
22:34 1001 29.56 830 24.51 -7.8 18 68 -12.6 9.3 -7.56 -0.298
22:35 1001 29.56 830 24.51 -8.2 17.2 70 -12.8 9 -7.98 -0.314
22:36 1001 29.56 830 24.51 -8.4 16.9 76 -11.9 10.5 -8.08 -0.318
22:37 1001 29.56 830 24.51 -8.1 17.5 73 -12.2 10.1 -7.81 -0.307
22:38 1001 29.56 830 24.51 -8 17.6 70 -12.5 9.5 -7.73 -0.304
22:39 1001 29.56 830 24.51 -8.3 17.2 70 -12.7 9.1 -8.09 -0.319
22:40 1001 29.56 830 24.51 -8.5 16.6 74 -12.4 9.7 -8.28 -0.326
22:41 1001 29.56 830 24.51 -8.4 16.8 72 -12.6 9.4 -8.18 -0.322
22:42 1001 29.56 830 24.51 -8.5 16.7 73 -12.4 9.6 -8.2 -0.323
22:43 1001 29.56 830 24.51 -8.5 16.7 71 -12.9 8.8 -8.17 -0.322
22:44 1001 29.56 830 24.51 -8.6 16.5 72 -12.8 9 -8.24 -0.324
22:45 1001 29.56 830 24.51 -8.6 16.6 73 -12.5 9.5 -8.21 -0.323
22:46 1001 29.56 830 24.51 -8.4 16.8 73 -12.5 9.6 -8.08 -0.318
22:47 1001 29.56 830 24.51 -8.4 16.9 69 -13.1 8.4 -8.09 -0.319
22:48 1001 29.56 830 24.51 -8.7 16.3 71 -13 8.5 -8.39 -0.33
22:49 1001 29.56 830 24.51 -9 15.8 70 -13.6 7.5 -8.7 -0.343
22:50 1001 29.56 830 24.51 -9.3 15.2 73 -13.3 8.1 -8.94 -0.352
22:51 1001 29.56 830 24.51 -9.5 15 77 -12.8 8.9 -9.07 -0.357
22:52 1001 29.56 830 24.51 -9.3 15.3 77 -12.6 9.2 -8.92 -0.351
22:53 1001 29.56 830 24.51 -9 15.8 79 -12 10.4 -8.65 -0.341
22:54 1001 29.56 830 24.51 -8.7 16.3 72 -12.9 8.8 -8.36 -0.329
22:55 1001 29.56 830 24.51 -9 15.9 71 -13.4 7.9 -8.63 -0.34
22:56 1001 29.56 830 24.51 -9.1 15.5 76 -12.7 9.2 -8.76 -0.345
22:57 1001 29.56 830 24.51 -8.9 16 73 -12.8 8.9 -8.54 -0.336
22:58 1001 29.56 830 24.51 -8.9 16.1 73 -12.8 8.9 -8.51 -0.335
22:59 1001 29.56 830 24.51 -8.8 16.1 73 -12.8 8.9 -8.49 -0.334
23:00 1001 29.56 830 24.51 -8.7 16.3 77 -12.1 10.2 -8.38 -0.33
23:01 1001 29.56 830 24.51 -8.2 17.2 74 -12 10.4 -7.88 -0.31
23:02 1001 29.56 830 24.51 -7.8 17.9 73 -11.8 10.7 -7.55 -0.297
23:03 1001 29.56 830 24.51 -7.5 18.6 71 -11.8 10.8 -7.19 -0.283
23:04 1001 29.56 830 24.51 -7.3 18.8 70 -12 10.5 -7.05 -0.278
23:05 1001 29.56 830 24.51 -7.6 18.4 68 -12.4 9.6 -7.39 -0.291
23:06 1001 29.56 830 24.51 -8 17.6 71 -12.5 9.6 -7.81 -0.307
23:07 1001 29.56 830 24.51 -8.1 17.5 74 -12 10.4 -7.87 -0.31
23:08 1001 29.56 830 24.51 -8 17.7 72 -12.2 10 -7.76 -0.306
23:09 1001 29.56 830 24.51 -8 17.6 72 -12.3 9.9 -7.88 -0.31
23:10 1001 29.56 830 24.51 -8 17.5 71 -12.3 9.8 -7.84 -0.309
23:11 1001 29.56 830 24.51 -7.9 17.8 72 -12.1 10.3 -7.66 -0.302
23:12 1001 29.56 830 24.51 -7.7 18.2 72 -12 10.5 -7.4 -0.291
23:13 1001 29.56 830 24.51 -7.5 18.6 73 -11.5 11.4 -7.14 -0.281
23:14 1001 29.56 830 24.51 -7 19.3 71 -11.5 11.4 -6.73 -0.265
23:15 1001 29.56 830 24.51 -6.8 19.7 70 -11.4 11.4 -6.583 -0.259
23:16 1001 29.56 830 24.51 -6.8 19.8 70 -11.5 11.4 -6.469 -0.255
23:17 1001 29.56 830 24.51 -6.7 19.9 69 -11.5 11.3 -6.39 -0.252
23:18 1001 29.56 830 24.51 -6.8 19.8 68 -11.7 10.9 -6.458 -0.254
23:19 1001 29.56 830 24.51 -6.9 19.5 70 -11.5 11.4 -6.526 -0.257
23:20 1001 29.56 830 24.51 -6.9 19.7 70 -11.5 11.3 -6.463 -0.254
23:21 1001 29.56 830 24.51 -6.9 19.6 69 -11.6 11 -6.531 -0.257
23:22 1001 29.56 830 24.51 -7.1 19.2 68 -12 10.4 -6.77 -0.267
23:23 1001 29.56 830 24.51 -7.5 18.6 68 -12.4 9.7 -7.06 -0.278
23:24 1001 29.56 830 24.51 -7.9 17.7 70 -12.5 9.6 -7.49 -0.295
23:25 1001 29.56 830 24.51 -8.1 17.4 71 -12.5 9.5 -7.63 -0.3
23:26 1001 29.56 830 24.51 -8.3 17.1 71 -12.7 9.1 -7.97 -0.314
23:27 1001 29.56 830 24.51 -8.5 16.7 73 -12.4 9.6 -8.13 -0.32
23:28 1001 29.56 830 24.51 -8.5 16.7 71 -12.8 9 -8.15 -0.321
23:29 1001 29.56 830 24.51 -8.7 16.3 71 -13.1 8.5 -8.33 -0.328
23:30 1001 29.56 830 24.51 -9 15.8 73 -13.1 8.5 -8.54 -0.336
23:31 1001 29.56 830 24.51 -9.1 15.7 77 -12.5 9.5 -8.64 -0.34
23:32 1001 29.56 830 24.51 -9 15.7 73 -13 8.6 -8.71 -0.343
23:33 1001 29.56 830 24.51 -9.3 15.3 75 -13 8.6 -8.93 -0.352
23:34 1001 29.56 830 24.51 -9.4 15 76 -12.9 8.7 -9.06 -0.357
23:35 1001 29.56 830 24.51 -9.3 15.2 77 -12.6 9.3 -8.93 -0.352
23:36 1001 29.56 830 24.51 -9.1 15.7 77 -12.4 9.7 -8.72 -0.343
23:37 1001 29.56 830 24.51 -8.8 16.2 77 -12.2 10.1 -8.52 -0.335
23:38 1001 29.56 830 24.51 -8.6 16.5 78 -11.8 10.8 -8.28 -0.326
23:39 1001 29.56 830 24.51 -8.2 17.3 80 -11.1 12.1 -7.81 -0.307
23:40 1001 29.56 830 24.51 -7.3 18.9 72 -11.5 11.4 -6.973 -0.275
23:41 1001 29.56 830 24.51 -6.4 20.4 73 -10.5 13.2 -6.151 -0.242
23:42 1001 29.56 830 24.51 -5.2 22.7 66 -10.6 12.9 -4.971 -0.196
23:43 1001 29.56 830 24.51 -4.5 23.9 63 -10.6 13 -4.409 -0.174
23:44 1001 29.56 830 24.51 -4.4 24 62 -10.6 12.9 -4.279 -0.168
23:45 1001 29.56 830 24.51 -4.6 23.8 63 -10.6 13 -4.392 -0.173
23:46 1001 29.56 830 24.51 -4.7 23.6 62 -10.9 12.4 -4.409 -0.174
23:47 1001 29.56 830 24.51 -4.8 23.3 62 -11.1 12 -4.58 -0.18
23:48 1001 29.56 830 24.51 -5.3 22.5 65 -10.9 12.4 -4.846 -0.191
23:49 1001 29.56 830 24.51 -5.3 22.4 65 -11 12.3 -4.909 -0.193
23:50 1001 29.56 830 24.51 -5.3 22.4 64 -11.2 11.9 -4.908 -0.193
23:51 1001 29.56 830 24.51 -5.9 21.4 60 -12.4 9.6 -5.566 -0.219
23:52 1001 29.56 830 24.51 -6.9 19.5 64 -12.7 9.2 -6.655 -0.262
23:53 1001 29.56 830 24.51 -7.6 18.3 69 -12.3 9.9 -7.31 -0.288
23:54 1001 29.56 830 24.51 -7.9 17.7 72 -12.2 10 -7.65 -0.301
23:55 1001 29.56 830 24.51 -8.1 17.3 68 -13 8.6 -7.87 -0.31
23:56 1001 29.56 830 24.51 -8.6 16.6 70 -13.1 8.5 -8.35 -0.329
23:57 1001 29.56 830 24.51 -8.9 16.1 74 -12.6 9.3 -8.57 -0.337
23:58 1001 29.56 830 24.51 -8.8 16.2 72 -13 8.6 -8.58 -0.338
23:59 1001 29.56 830 24.51 -9.1 15.7 71 -13.4 7.9 -8.86 -0.349
24:00 1001 29.56 830 24.51 -9.3 15.3 74 -13 8.5 -9.05 -0.356